Observation data for Menard on 06/20/2019      Previous  Date  Next       Current Mesonet Observations  Soil Data  Daily Summary Page  Observations in Plain Language
KMD1 200500Z 11003KT 26/22 A2985 RMK A01 T02580222  RH  081%=      5-min Rain = 0
KMD1 200501Z 10003KT 26/22 A2985 RMK A01 T02570222  RH  081%=      5-min Rain = 0
KMD1 200502Z 09004KT 26/22 A2985 RMK A01 T02560222  RH  082%=      5-min Rain = 0
KMD1 200503Z 10004KT 26/22 A2985 RMK A01 T02550221  RH  082%=      5-min Rain = 0
KMD1 200504Z 10004KT 26/22 A2985 RMK A01 T02550221  RH  081%=      5-min Rain = 0
KMD1 200505Z 10005KT 26/22 A2985 RMK A01 T02550221  RH  082%=      5-min Rain = 0
KMD1 200506Z 09005KT 25/22 A2985 RMK A01 T02540221  RH  082%=      5-min Rain = 0
KMD1 200507Z 10005KT 25/22 A2985 RMK A01 T02530221  RH  082%=      5-min Rain = 0
KMD1 200508Z 10005KT 25/22 A2985 RMK A01 T02530221  RH  083%=      5-min Rain = 0
KMD1 200509Z 11005KT 25/22 A2985 RMK A01 T02520222  RH  083%=      5-min Rain = 0
KMD1 200510Z 11005KT 25/22 A2985 RMK A01 T02520221  RH  083%=      5-min Rain = 0
KMD1 200511Z 11006KT 25/22 A2985 RMK A01 T02510221  RH  083%=      5-min Rain = 0
KMD1 200512Z 11005KT 25/22 A2985 RMK A01 T02520221  RH  083%=      5-min Rain = 0
KMD1 200513Z 12006KT 25/22 A2985 RMK A01 T02520220  RH  083%=      5-min Rain = 0
KMD1 200514Z 12007KT 25/22 A2985 RMK A01 T02520220  RH  083%=      5-min Rain = 0
KMD1 200515Z 12007KT 25/22 A2985 RMK A01 T02530219  RH  082%=      5-min Rain = 0
KMD1 200516Z 12007KT 26/22 A2985 RMK A01 T02550220  RH  081%=      5-min Rain = 0
KMD1 200517Z 11008KT 26/22 A2985 RMK A01 T02550219  RH  080%=      5-min Rain = 0
KMD1 200518Z 11009KT 26/22 A2985 RMK A01 T02570219  RH  079%=      5-min Rain = 0
KMD1 200519Z 11008KT 26/22 A2985 RMK A01 T02590219  RH  078%=      5-min Rain = 0
KMD1 200520Z 10008KT 26/22 A2985 RMK A01 T02600218  RH  078%=      5-min Rain = 0
KMD1 200521Z 09006KT 26/22 A2985 RMK A01 T02600218  RH  078%=      5-min Rain = 0
KMD1 200522Z 09007KT 26/22 A2985 RMK A01 T02600219  RH  078%=      5-min Rain = 0
KMD1 200523Z 09006KT 26/22 A2985 RMK A01 T02600219  RH  078%=      5-min Rain = 0
KMD1 200524Z 09008KT 26/22 A2985 RMK A01 T02590219  RH  079%=      5-min Rain = 0
KMD1 200525Z 09007KT 26/22 A2985 RMK A01 T02580219  RH  079%=      5-min Rain = 0
KMD1 200526Z 09007KT 26/22 A2985 RMK A01 T02580219  RH  079%=      5-min Rain = 0
KMD1 200527Z 09005KT 26/22 A2985 RMK A01 T02570218  RH  079%=      5-min Rain = 0
KMD1 200528Z 08005KT 26/22 A2985 RMK A01 T02570218  RH  079%=      5-min Rain = 0
KMD1 200529Z 08005KT 26/22 A2985 RMK A01 T02550217  RH  079%=      5-min Rain = 0
KMD1 200530Z 09006KT 26/22 A2985 RMK A01 T02550216  RH  079%=      5-min Rain = 0
KMD1 200531Z 09006KT 25/21 A2985 RMK A01 T02540214  RH  079%=      5-min Rain = 0
KMD1 200532Z 09006KT 25/21 A2985 RMK A01 T02540214  RH  079%=      5-min Rain = 0
KMD1 200533Z 09006KT 25/21 A2985 RMK A01 T02540213  RH  078%=      5-min Rain = 0
KMD1 200534Z 09006KT 25/21 A2985 RMK A01 T02530213  RH  078%=      5-min Rain = 0
KMD1 200535Z 09006KT 25/21 A2985 RMK A01 T02530211  RH  078%=      5-min Rain = 0
KMD1 200536Z 08006KT 25/21 A2985 RMK A01 T02530211  RH  078%=      5-min Rain = 0
KMD1 200537Z 09006KT 25/21 A2985 RMK A01 T02520211  RH  078%=      5-min Rain = 0
KMD1 200538Z 08005KT 25/21 A2985 RMK A01 T02510209  RH  078%=      5-min Rain = 0
KMD1 200539Z 09005KT 25/21 A2985 RMK A01 T02510209  RH  077%=      5-min Rain = 0
KMD1 200540Z 09005KT 25/21 A2985 RMK A01 T02500209  RH  078%=      5-min Rain = 0
KMD1 200541Z 09005KT 25/21 A2985 RMK A01 T02500208  RH  078%=      5-min Rain = 0
KMD1 200542Z 10006KT 25/21 A2985 RMK A01 T02490206  RH  077%=      5-min Rain = 0
KMD1 200543Z 10006KT 25/20 A2985 RMK A01 T02490204  RH  076%=      5-min Rain = 0
KMD1 200544Z 10007KT 25/20 A2985 RMK A01 T02490203  RH  076%=      5-min Rain = 0
KMD1 200545Z 10007KT 25/20 A2985 RMK A01 T02480201  RH  075%=      5-min Rain = 0
KMD1 200546Z 10006KT 25/20 A2985 RMK A01 T02480201  RH  075%=      5-min Rain = 0
KMD1 200547Z 10006KT 25/20 A2985 RMK A01 T02480201  RH  075%=      5-min Rain = 0
KMD1 200548Z 10006KT 25/20 A2985 RMK A01 T02470200  RH  075%=      5-min Rain = 0
KMD1 200549Z 10006KT 25/20 A2985 RMK A01 T02460200  RH  075%=      5-min Rain = 0
KMD1 200550Z 10007KT 25/20 A2985 RMK A01 T02450199  RH  076%=      5-min Rain = 0
KMD1 200551Z 10007KT 24/20 A2985 RMK A01 T02430198  RH  076%=      5-min Rain = 0
KMD1 200552Z 10006KT 24/20 A2985 RMK A01 T02430197  RH  076%=      5-min Rain = 0
KMD1 200553Z 10006KT 24/20 A2985 RMK A01 T02420197  RH  076%=      5-min Rain = 0
KMD1 200554Z 10006KT 24/20 A2985 RMK A01 T02420197  RH  076%=      5-min Rain = 0
KMD1 200555Z 10006KT 24/20 A2985 RMK A01 T02410197  RH  076%=      5-min Rain = 0
KMD1 200556Z 10006KT 24/20 A2985 RMK A01 T02400196  RH  076%=      5-min Rain = 0
KMD1 200557Z 09006KT 24/20 A2985 RMK A01 T02400196  RH  077%=      5-min Rain = 0
KMD1 200558Z 10005KT 24/20 A2985 RMK A01 T02400196  RH  076%=      5-min Rain = 0
KMD1 200559Z 10005KT 24/20 A2985 RMK A01 T02400196  RH  076%=      5-min Rain = 0
KMD1 200600Z 10005KT 24/20 A2985 RMK A01 T02400196  RH  077%=      5-min Rain = 0
KMD1 200601Z 10005KT 24/20 A2985 RMK A01 T02390196  RH  077%=      5-min Rain = 0
KMD1 200602Z 10005KT 24/20 A2985 RMK A01 T02390196  RH  077%=      5-min Rain = 0
KMD1 200603Z 10005KT 24/20 A2985 RMK A01 T02380197  RH  077%=      5-min Rain = 0
KMD1 200604Z 10004KT 24/20 A2985 RMK A01 T02380197  RH  078%=      5-min Rain = 0
KMD1 200605Z 11005KT 24/20 A2984 RMK A01 T02380197  RH  078%=      5-min Rain = 0
KMD1 200606Z 10005KT 24/20 A2984 RMK A01 T02380197  RH  078%=      5-min Rain = 0
KMD1 200607Z 11005KT 24/20 A2984 RMK A01 T02380198  RH  078%=      5-min Rain = 0
KMD1 200608Z 11004KT 24/20 A2984 RMK A01 T02380198  RH  078%=      5-min Rain = 0
KMD1 200609Z 12005KT 24/20 A2984 RMK A01 T02380198  RH  078%=      5-min Rain = 0
KMD1 200610Z 11005KT 24/20 A2984 RMK A01 T02380198  RH  079%=      5-min Rain = 0
KMD1 200611Z 11005KT 24/20 A2984 RMK A01 T02380199  RH  079%=      5-min Rain = 0
KMD1 200612Z 11005KT 24/20 A2984 RMK A01 T02380200  RH  079%=      5-min Rain = 0
KMD1 200613Z 11005KT 24/20 A2984 RMK A01 T02370200  RH  080%=      5-min Rain = 0
KMD1 200614Z 12005KT 24/20 A2984 RMK A01 T02370201  RH  080%=      5-min Rain = 0
KMD1 200615Z 12005KT 24/20 A2984 RMK A01 T02370202  RH  081%=      5-min Rain = 0
KMD1 200616Z 12006KT 24/20 A2984 RMK A01 T02360202  RH  081%=      5-min Rain = 0
KMD1 200617Z 12006KT 24/20 A2984 RMK A01 T02370203  RH  081%=      5-min Rain = 0
KMD1 200618Z 12006KT 24/20 A2984 RMK A01 T02370203  RH  081%=      5-min Rain = 0
KMD1 200619Z 12006KT 24/21 A2984 RMK A01 T02380205  RH  081%=      5-min Rain = 0
KMD1 200620Z 11006KT 24/21 A2984 RMK A01 T02390205  RH  082%=      5-min Rain = 0
KMD1 200621Z 12006KT 24/21 A2984 RMK A01 T02390206  RH  082%=      5-min Rain = 0
KMD1 200622Z 12006KT 24/21 A2984 RMK A01 T02390206  RH  082%=      5-min Rain = 0
KMD1 200623Z 12008KT 24/21 A2984 RMK A01 T02390206  RH  082%=      5-min Rain = 0
KMD1 200624Z 11006KT 24/21 A2984 RMK A01 T02410207  RH  081%=      5-min Rain = 0
KMD1 200625Z 11007KT 24/21 A2984 RMK A01 T02420207  RH  081%=      5-min Rain = 0
KMD1 200626Z 12006KT 24/21 A2984 RMK A01 T02440207  RH  080%=      5-min Rain = 0
KMD1 200627Z 11006KT 25/21 A2984 RMK A01 T02450207  RH  080%=      5-min Rain = 0
KMD1 200628Z 11007KT 25/21 A2984 RMK A01 T02450208  RH  080%=      5-min Rain = 0
KMD1 200629Z 11007KT 25/21 A2984 RMK A01 T02450207  RH  079%=      5-min Rain = 0
KMD1 200630Z 11006KT 25/21 A2984 RMK A01 T02470207  RH  079%=      5-min Rain = 0
KMD1 200631Z 11007KT 25/21 A2984 RMK A01 T02470208  RH  078%=      5-min Rain = 0
KMD1 200632Z 11006KT 25/21 A2983 RMK A01 T02480208  RH  079%=      5-min Rain = 0
KMD1 200633Z 12006KT 25/21 A2983 RMK A01 T02470208  RH  079%=      5-min Rain = 0
KMD1 200634Z 11005KT 25/21 A2983 RMK A01 T02470208  RH  079%=      5-min Rain = 0
KMD1 200635Z 11005KT 25/21 A2983 RMK A01 T02460208  RH  079%=      5-min Rain = 0
KMD1 200636Z 11005KT 25/21 A2983 RMK A01 T02460208  RH  080%=      5-min Rain = 0
KMD1 200637Z 11004KT 25/21 A2983 RMK A01 T02450208  RH  080%=      5-min Rain = 0
KMD1 200638Z 11004KT 24/21 A2983 RMK A01 T02440208  RH  080%=      5-min Rain = 0
KMD1 200639Z 11004KT 24/21 A2983 RMK A01 T02440208  RH  081%=      5-min Rain = 0
KMD1 200640Z 11004KT 24/21 A2983 RMK A01 T02430208  RH  081%=      5-min Rain = 0
KMD1 200641Z 11004KT 24/21 A2983 RMK A01 T02420208  RH  081%=      5-min Rain = 0
KMD1 200642Z 11004KT 24/21 A2983 RMK A01 T02420208  RH  081%=      5-min Rain = 0
KMD1 200643Z 10004KT 24/21 A2983 RMK A01 T02410208  RH  082%=      5-min Rain = 0
KMD1 200644Z 10003KT 24/21 A2983 RMK A01 T02400207  RH  082%=      5-min Rain = 0
KMD1 200645Z 10003KT 24/21 A2983 RMK A01 T02390207  RH  082%=      5-min Rain = 0
KMD1 200646Z 09004KT 24/21 A2983 RMK A01 T02390206  RH  082%=      5-min Rain = 0
KMD1 200647Z 09004KT 24/21 A2983 RMK A01 T02380206  RH  082%=      5-min Rain = 0
KMD1 200648Z 09004KT 24/21 A2983 RMK A01 T02380206  RH  082%=      5-min Rain = 0
KMD1 200649Z 09005KT 24/21 A2982 RMK A01 T02380206  RH  082%=      5-min Rain = 0
KMD1 200650Z 09005KT 24/21 A2982 RMK A01 T02370206  RH  083%=      5-min Rain = 0
KMD1 200651Z 09005KT 24/21 A2982 RMK A01 T02370206  RH  083%=      5-min Rain = 0
KMD1 200652Z 09005KT 24/21 A2982 RMK A01 T02370206  RH  083%=      5-min Rain = 0
KMD1 200653Z 10005KT 24/21 A2982 RMK A01 T02360206  RH  083%=      5-min Rain = 0
KMD1 200654Z 10005KT 24/21 A2982 RMK A01 T02360206  RH  083%=      5-min Rain = 0
KMD1 200655Z 10005KT 24/21 A2982 RMK A01 T02360206  RH  083%=      5-min Rain = 0
KMD1 200656Z 11005KT 24/21 A2982 RMK A01 T02360206  RH  083%=      5-min Rain = 0
KMD1 200657Z 11005KT 24/21 A2982 RMK A01 T02370206  RH  083%=      5-min Rain = 0
KMD1 200658Z 11005KT 24/21 A2982 RMK A01 T02370206  RH  083%=      5-min Rain = 0
KMD1 200659Z 10005KT 24/21 A2982 RMK A01 T02380206  RH  083%=      5-min Rain = 0
KMD1 200700Z 10005KT 24/21 A2982 RMK A01 T02380206  RH  083%=      5-min Rain = 0
KMD1 200701Z 10005KT 24/21 A2982 RMK A01 T02380207  RH  083%=      5-min Rain = 0
KMD1 200702Z 11005KT 24/21 A2982 RMK A01 T02380207  RH  083%=      5-min Rain = 0
KMD1 200703Z 11005KT 24/21 A2982 RMK A01 T02380207  RH  083%=      5-min Rain = 0
KMD1 200704Z 11005KT 24/21 A2982 RMK A01 T02370207  RH  083%=      5-min Rain = 0
KMD1 200705Z 12005KT 24/21 A2982 RMK A01 T02360207  RH  084%=      5-min Rain = 0
KMD1 200706Z 11005KT 24/21 A2982 RMK A01 T02360207  RH  084%=      5-min Rain = 0
KMD1 200707Z 12005KT 24/21 A2982 RMK A01 T02360207  RH  084%=      5-min Rain = 0
KMD1 200708Z 12004KT 24/21 A2982 RMK A01 T02360207  RH  084%=      5-min Rain = 0
KMD1 200709Z 12004KT 24/21 A2982 RMK A01 T02360207  RH  084%=      5-min Rain = 0
KMD1 200710Z 12005KT 24/21 A2982 RMK A01 T02360207  RH  084%=      5-min Rain = 0
KMD1 200711Z 13004KT 24/21 A2982 RMK A01 T02350207  RH  084%=      5-min Rain = 0
KMD1 200712Z 13004KT 23/21 A2982 RMK A01 T02340207  RH  085%=      5-min Rain = 0
KMD1 200713Z 14005KT 24/21 A2982 RMK A01 T02350208  RH  085%=      5-min Rain = 0
KMD1 200714Z 14004KT 24/21 A2982 RMK A01 T02350208  RH  085%=      5-min Rain = 0
KMD1 200715Z 14005KT 24/21 A2982 RMK A01 T02350209  RH  085%=      5-min Rain = 0
KMD1 200716Z 14005KT 24/21 A2982 RMK A01 T02360209  RH  085%=      5-min Rain = 0
KMD1 200717Z 14005KT 24/21 A2982 RMK A01 T02370210  RH  085%=      5-min Rain = 0
KMD1 200718Z 14004KT 24/21 A2982 RMK A01 T02380210  RH  085%=      5-min Rain = 0
KMD1 200719Z 15004KT 24/21 A2982 RMK A01 T02390211  RH  084%=      5-min Rain = 0
KMD1 200720Z 15003KT 24/21 A2982 RMK A01 T02390211  RH  084%=      5-min Rain = 0
KMD1 200721Z 15002KT 24/21 A2982 RMK A01 T02400211  RH  084%=      5-min Rain = 0
KMD1 200722Z 15003KT 24/21 A2982 RMK A01 T02400211  RH  084%=      5-min Rain = 0
KMD1 200723Z 15002KT 24/21 A2982 RMK A01 T02400211  RH  084%=      5-min Rain = 0
KMD1 200724Z 17002KT 24/21 A2982 RMK A01 T02390210  RH  084%=      5-min Rain = 0
KMD1 200725Z 16001KT 24/21 A2982 RMK A01 T02400211  RH  084%=      5-min Rain = 0
KMD1 200726Z 17001KT 24/21 A2982 RMK A01 T02400211  RH  084%=      5-min Rain = 0
KMD1 200727Z 15001KT 24/21 A2982 RMK A01 T02400211  RH  084%=      5-min Rain = 0
KMD1 200728Z 14002KT 24/21 A2982 RMK A01 T02390211  RH  084%=      5-min Rain = 0
KMD1 200729Z 12001KT 24/21 A2982 RMK A01 T02390211  RH  084%=      5-min Rain = 0
KMD1 200730Z 13001KT 24/21 A2982 RMK A01 T02380210  RH  084%=      5-min Rain = 0
KMD1 200731Z 13001KT 24/21 A2982 RMK A01 T02390211  RH  084%=      5-min Rain = 0
KMD1 200732Z 11000KT 24/21 A2982 RMK A01 T02390211  RH  084%=      5-min Rain = 0
KMD1 200733Z 12000KT 24/21 A2982 RMK A01 T02390211  RH  084%=      5-min Rain = 0
KMD1 200734Z 12001KT 24/21 A2982 RMK A01 T02390211  RH  084%=      5-min Rain = 0
KMD1 200735Z 13001KT 24/21 A2982 RMK A01 T02390210  RH  084%=      5-min Rain = 0
KMD1 200736Z 13001KT 24/21 A2982 RMK A01 T02390211  RH  084%=      5-min Rain = 0
KMD1 200737Z 11001KT 24/21 A2982 RMK A01 T02390211  RH  084%=      5-min Rain = 0
KMD1 200738Z 06000KT 24/21 A2982 RMK A01 T02390211  RH  084%=      5-min Rain = 0
KMD1 200739Z 11000KT 24/21 A2982 RMK A01 T02390211  RH  084%=      5-min Rain = 0
KMD1 200740Z 11001KT 24/21 A2982 RMK A01 T02390212  RH  085%=      5-min Rain = 0
KMD1 200741Z 06001KT 24/21 A2982 RMK A01 T02390211  RH  084%=      5-min Rain = 0
KMD1 200742Z 19000KT 24/21 A2982 RMK A01 T02380210  RH  084%=      5-min Rain = 0
KMD1 200743Z 19000KT 24/21 A2982 RMK A01 T02390211  RH  085%=      5-min Rain = 0
KMD1 200744Z 00000KT 24/21 A2982 RMK A01 T02390210  RH  084%=      5-min Rain = 0
KMD1 200745Z 19000KT 24/21 A2982 RMK A01 T02390211  RH  084%=      5-min Rain = 0
KMD1 200746Z 16000KT 24/21 A2982 RMK A01 T02390213  RH  085%=      5-min Rain = 0
KMD1 200747Z 12000KT 24/21 A2981 RMK A01 T02410213  RH  084%=      5-min Rain = 0
KMD1 200748Z 14002KT 24/21 A2982 RMK A01 T02430214  RH  084%=      5-min Rain = 0
KMD1 200749Z 17000KT 24/21 A2981 RMK A01 T02440213  RH  083%=      5-min Rain = 0
KMD1 200750Z 04000KT 24/21 A2981 RMK A01 T02440213  RH  083%=      5-min Rain = 0
KMD1 200751Z 09001KT 25/21 A2981 RMK A01 T02450213  RH  082%=      5-min Rain = 0
KMD1 200752Z 10001KT 25/21 A2981 RMK A01 T02460213  RH  082%=      5-min Rain = 0
KMD1 200753Z 07000KT 25/21 A2981 RMK A01 T02460212  RH  082%=      5-min Rain = 0
KMD1 200754Z 05001KT 25/21 A2981 RMK A01 T02450212  RH  082%=      5-min Rain = 0
KMD1 200755Z 07001KT 24/21 A2981 RMK A01 T02440212  RH  083%=      5-min Rain = 0
KMD1 200756Z 07001KT 24/21 A2981 RMK A01 T02420212  RH  083%=      5-min Rain = 0
KMD1 200757Z 09002KT 24/21 A2981 RMK A01 T02400211  RH  084%=      5-min Rain = 0
KMD1 200758Z 13003KT 24/21 A2981 RMK A01 T02390211  RH  085%=      5-min Rain = 0
KMD1 200759Z 11003KT 24/21 A2981 RMK A01 T02380211  RH  085%=      5-min Rain = 0
KMD1 200800Z 11003KT 24/21 A2981 RMK A01 T02360210  RH  085%=      5-min Rain = 0
KMD1 200801Z 10002KT 24/21 A2981 RMK A01 T02350210  RH  086%=      5-min Rain = 0
KMD1 200802Z 11002KT 23/21 A2981 RMK A01 T02340210  RH  086%=      5-min Rain = 0
KMD1 200803Z 12002KT 23/21 A2981 RMK A01 T02340211  RH  087%=      5-min Rain = 0
KMD1 200804Z 11002KT 23/21 A2981 RMK A01 T02340212  RH  087%=      5-min Rain = 0
KMD1 200805Z 13002KT 23/21 A2981 RMK A01 T02340211  RH  087%=      5-min Rain = 0
KMD1 200806Z 13002KT 23/21 A2981 RMK A01 T02340211  RH  087%=      5-min Rain = 0
KMD1 200807Z 14003KT 23/21 A2981 RMK A01 T02340210  RH  086%=      5-min Rain = 0
KMD1 200808Z 14002KT 23/21 A2981 RMK A01 T02330211  RH  087%=      5-min Rain = 0
KMD1 200809Z 15002KT 23/21 A2981 RMK A01 T02320211  RH  088%=      5-min Rain = 0
KMD1 200810Z 18002KT 23/21 A2981 RMK A01 T02320212  RH  088%=      5-min Rain = 0
KMD1 200811Z 17003KT 23/21 A2981 RMK A01 T02330213  RH  089%=      5-min Rain = 0
KMD1 200812Z 17002KT 23/21 A298 RMK A01 T02340213  RH  088%=      5-min Rain = 0
KMD1 200813Z 18002KT 23/21 A298 RMK A01 T02340213  RH  088%=      5-min Rain = 0
KMD1 200814Z 20002KT 23/21 A298 RMK A01 T02340213  RH  088%=      5-min Rain = 0
KMD1 200815Z 19002KT 23/21 A298 RMK A01 T02330213  RH  088%=      5-min Rain = 0
KMD1 200816Z 21002KT 23/21 A298 RMK A01 T02320213  RH  089%=      5-min Rain = 0
KMD1 200817Z 22002KT 23/21 A298 RMK A01 T02320214  RH  089%=      5-min Rain = 0
KMD1 200818Z 23002KT 23/21 A298 RMK A01 T02320213  RH  089%=      5-min Rain = 0
KMD1 200819Z 25002KT 23/21 A298 RMK A01 T02320214  RH  090%=      5-min Rain = 0
KMD1 200820Z 26002KT 23/21 A298 RMK A01 T02310214  RH  090%=      5-min Rain = 0
KMD1 200821Z 25001KT 23/21 A298 RMK A01 T02310213  RH  090%=      5-min Rain = 0
KMD1 200822Z 27002KT 23/21 A298 RMK A01 T02300212  RH  089%=      5-min Rain = 0
KMD1 200823Z 25001KT 23/21 A298 RMK A01 T02300212  RH  090%=      5-min Rain = 0
KMD1 200824Z 27001KT 23/21 A298 RMK A01 T02290213  RH  091%=      5-min Rain = 0
KMD1 200825Z 30001KT 23/21 A298 RMK A01 T02290214  RH  091%=      5-min Rain = 0
KMD1 200826Z 30001KT 23/21 A298 RMK A01 T02290213  RH  091%=      5-min Rain = 0
KMD1 200827Z 30001KT 23/21 A298 RMK A01 T02290212  RH  090%=      5-min Rain = 0
KMD1 200828Z 31001KT 23/21 A298 RMK A01 T02280213  RH  091%=      5-min Rain = 0
KMD1 200829Z 33001KT 23/21 A298 RMK A01 T02280213  RH  091%=      5-min Rain = 0
KMD1 200830Z 00001KT 23/21 A298 RMK A01 T02270211  RH  091%=      5-min Rain = 0
KMD1 200831Z 01001KT 23/21 A298 RMK A01 T02260211  RH  091%=      5-min Rain = 0
KMD1 200832Z 00000KT 22/21 A298 RMK A01 T02240211  RH  092%=      5-min Rain = 0
KMD1 200833Z 36000KT 22/21 A298 RMK A01 T02230211  RH  093%=      5-min Rain = 0
KMD1 200834Z 31000KT 22/21 A298 RMK A01 T02230210  RH  093%=      5-min Rain = 0
KMD1 200835Z 02001KT 22/21 A298 RMK A01 T02220211  RH  093%=      5-min Rain = 0
KMD1 200836Z 03001KT 22/21 A298 RMK A01 T02220211  RH  093%=      5-min Rain = 0
KMD1 200837Z 04000KT 22/21 A298 RMK A01 T02220213  RH  094%=      5-min Rain = 0
KMD1 200838Z 04000KT 22/21 A298 RMK A01 T02240214  RH  094%=      5-min Rain = 0
KMD1 200839Z 00000KT 23/21 A298 RMK A01 T02250213  RH  093%=      5-min Rain = 0
KMD1 200840Z 07000KT 23/21 A298 RMK A01 T02250212  RH  093%=      5-min Rain = 0
KMD1 200841Z 06001KT 23/21 A298 RMK A01 T02250212  RH  092%=      5-min Rain = 0
KMD1 200842Z 05001KT 22/21 A298 RMK A01 T02240211  RH  092%=      5-min Rain = 0
KMD1 200843Z 03001KT 22/21 A298 RMK A01 T02240211  RH  093%=      5-min Rain = 0
KMD1 200844Z 02000KT 22/21 A298 RMK A01 T02230211  RH  093%=      5-min Rain = 0
KMD1 200845Z 36000KT 22/21 A298 RMK A01 T02240212  RH  093%=      5-min Rain = 0
KMD1 200846Z 00001KT 23/21 A298 RMK A01 T02250213  RH  093%=      5-min Rain = 0
KMD1 200847Z 36002KT 23/21 A298 RMK A01 T02250213  RH  093%=      5-min Rain = 0
KMD1 200848Z 00002KT 23/21 A298 RMK A01 T02250213  RH  093%=      5-min Rain = 0
KMD1 200849Z 35002KT 23/22 A298 RMK A01 T02260215  RH  093%=      5-min Rain = 0
KMD1 200850Z 36002KT 23/22 A298 RMK A01 T02280215  RH  093%=      5-min Rain = 0
KMD1 200851Z 36003KT 23/22 A298 RMK A01 T02280216  RH  093%=      5-min Rain = 0
KMD1 200852Z 00004KT 23/22 A298 RMK A01 T02290216  RH  092%=      5-min Rain = 0
KMD1 200853Z 36004KT 23/22 A298 RMK A01 T02290215  RH  092%=      5-min Rain = 0
KMD1 200854Z 00004KT 23/22 A298 RMK A01 T02290216  RH  093%=      5-min Rain = 0
KMD1 200855Z 00004KT 23/22 A298 RMK A01 T02300217  RH  093%=      5-min Rain = 0
KMD1 200856Z 01003KT 23/22 A298 RMK A01 T02310218  RH  092%=      5-min Rain = 0
KMD1 200857Z 01003KT 23/22 A298 RMK A01 T02320218  RH  092%=      5-min Rain = 0
KMD1 200858Z 01003KT 23/22 A298 RMK A01 T02320218  RH  091%=      5-min Rain = 0
KMD1 200859Z 01002KT 23/22 A298 RMK A01 T02320217  RH  091%=      5-min Rain = 0
KMD1 200900Z 01001KT 23/22 A298 RMK A01 T02320217  RH  091%=      5-min Rain = 0
KMD1 200901Z 01002KT 23/22 A298 RMK A01 T02320217  RH  091%=      5-min Rain = 0
KMD1 200902Z 00001KT 23/22 A298 RMK A01 T02320217  RH  091%=      5-min Rain = 0
KMD1 200903Z 24000KT 23/22 A298 RMK A01 T02330220  RH  092%=      5-min Rain = 0
KMD1 200904Z 29001KT 24/22 A298 RMK A01 T02360221  RH  091%=      5-min Rain = 0
KMD1 200905Z 25001KT 24/22 A298 RMK A01 T02370221  RH  090%=      5-min Rain = 0
KMD1 200906Z 28001KT 24/22 A2981 RMK A01 T02390221  RH  089%=      5-min Rain = 0
KMD1 200907Z 30002KT 24/22 A2981 RMK A01 T02400221  RH  089%=      5-min Rain = 0
KMD1 200908Z 26002KT 24/22 A2981 RMK A01 T02420221  RH  088%=      5-min Rain = 0
KMD1 200909Z 27002KT 24/22 A2981 RMK A01 T02420222  RH  089%=      5-min Rain = 0
KMD1 200910Z 25003KT 24/22 A2981 RMK A01 T02430222  RH  088%=      5-min Rain = 0
KMD1 200911Z 24003KT 24/22 A2981 RMK A01 T02440222  RH  088%=      5-min Rain = 0
KMD1 200912Z 23002KT 24/22 A2981 RMK A01 T02440222  RH  088%=      5-min Rain = 0
KMD1 200913Z 19003KT 25/22 A2981 RMK A01 T02450222  RH  087%=      5-min Rain = 0
KMD1 200914Z 19004KT 25/22 A298 RMK A01 T02460222  RH  087%=      5-min Rain = 0
KMD1 200915Z 21002KT 25/22 A298 RMK A01 T02470222  RH  086%=      5-min Rain = 0
KMD1 200916Z 20001KT 25/22 A298 RMK A01 T02480223  RH  086%=      5-min Rain = 0
KMD1 200917Z 20003KT 25/22 A298 RMK A01 T02480223  RH  086%=      5-min Rain = 0
KMD1 200918Z 22003KT 25/22 A298 RMK A01 T02500224  RH  085%=      5-min Rain = 0
KMD1 200919Z 20003KT 25/22 A298 RMK A01 T02500223  RH  085%=      5-min Rain = 0
KMD1 200920Z 21003KT 25/22 A298 RMK A01 T02510223  RH  084%=      5-min Rain = 0
KMD1 200921Z 21003KT 25/22 A298 RMK A01 T02520223  RH  084%=      5-min Rain = 0
KMD1 200922Z 20003KT 25/22 A298 RMK A01 T02520223  RH  084%=      5-min Rain = 0
KMD1 200923Z 20003KT 25/22 A298 RMK A01 T02520223  RH  084%=      5-min Rain = 0
KMD1 200924Z 20003KT 25/22 A298 RMK A01 T02520223  RH  084%=      5-min Rain = 0
KMD1 200925Z 20004KT 25/22 A298 RMK A01 T02510223  RH  084%=      5-min Rain = 0
KMD1 200926Z 20003KT 25/22 A298 RMK A01 T02510223  RH  085%=      5-min Rain = 0
KMD1 200927Z 21003KT 25/22 A298 RMK A01 T02500222  RH  085%=      5-min Rain = 0
KMD1 200928Z 21003KT 25/22 A298 RMK A01 T02490222  RH  085%=      5-min Rain = 0
KMD1 200929Z 20003KT 25/22 A298 RMK A01 T02490223  RH  085%=      5-min Rain = 0
KMD1 200930Z 20003KT 25/22 A298 RMK A01 T02490221  RH  085%=      5-min Rain = 0
KMD1 200931Z 19004KT 25/22 A298 RMK A01 T02480221  RH  085%=      5-min Rain = 0
KMD1 200932Z 20004KT 25/22 A298 RMK A01 T02460221  RH  086%=      5-min Rain = 0
KMD1 200933Z 21004KT 25/22 A298 RMK A01 T02450221  RH  086%=      5-min Rain = 0
KMD1 200934Z 21003KT 24/22 A298 RMK A01 T02440221  RH  087%=      5-min Rain = 0
KMD1 200935Z 21003KT 24/22 A298 RMK A01 T02430221  RH  088%=      5-min Rain = 0
KMD1 200936Z 21004KT 24/22 A298 RMK A01 T02420221  RH  088%=      5-min Rain = 0
KMD1 200937Z 21003KT 24/22 A298 RMK A01 T02410220  RH  088%=      5-min Rain = 0
KMD1 200938Z 22002KT 24/22 A298 RMK A01 T02400219  RH  088%=      5-min Rain = 0
KMD1 200939Z 23003KT 24/22 A2981 RMK A01 T02390219  RH  089%=      5-min Rain = 0
KMD1 200940Z 24002KT 24/22 A2981 RMK A01 T02380219  RH  089%=      5-min Rain = 0
KMD1 200941Z 24002KT 24/22 A2981 RMK A01 T02380219  RH  089%=      5-min Rain = 0
KMD1 200942Z 22002KT 24/22 A2981 RMK A01 T02370219  RH  090%=      5-min Rain = 0
KMD1 200943Z 23001KT 24/22 A2981 RMK A01 T02350218  RH  090%=      5-min Rain = 0
KMD1 200944Z 22002KT 24/22 A2981 RMK A01 T02350218  RH  090%=      5-min Rain = 0
KMD1 200945Z 22002KT 23/22 A2981 RMK A01 T02340218  RH  091%=      5-min Rain = 0
KMD1 200946Z 23002KT 23/22 A2981 RMK A01 T02340219  RH  091%=      5-min Rain = 0
KMD1 200947Z 23002KT 23/22 A2981 RMK A01 T02340220  RH  091%=      5-min Rain = 0
KMD1 200948Z 23003KT 23/22 A2981 RMK A01 T02340219  RH  091%=      5-min Rain = 0
KMD1 200949Z 24002KT 23/22 A2981 RMK A01 T02340219  RH  092%=      5-min Rain = 0
KMD1 200950Z 23002KT 23/22 A2981 RMK A01 T02340220  RH  092%=      5-min Rain = 0
KMD1 200951Z 22002KT 23/22 A2981 RMK A01 T02340220  RH  092%=      5-min Rain = 0
KMD1 200952Z 22003KT 23/22 A2981 RMK A01 T02340220  RH  092%=      5-min Rain = 0
KMD1 200953Z 23003KT 23/22 A2981 RMK A01 T02340221  RH  092%=      5-min Rain = 0
KMD1 200954Z 23003KT 23/22 A2981 RMK A01 T02340221  RH  092%=      5-min Rain = 0
KMD1 200955Z 24002KT 23/22 A2981 RMK A01 T02340220  RH  092%=      5-min Rain = 0
KMD1 200956Z 24002KT 24/22 A2981 RMK A01 T02350220  RH  092%=      5-min Rain = 0
KMD1 200957Z 24003KT 23/22 A2981 RMK A01 T02340220  RH  092%=      5-min Rain = 0
KMD1 200958Z 23002KT 23/22 A2981 RMK A01 T02340220  RH  092%=      5-min Rain = 0
KMD1 200959Z 21003KT 23/22 A2981 RMK A01 T02340220  RH  092%=      5-min Rain = 0
KMD1 201000Z 21002KT 23/22 A2981 RMK A01 T02340220  RH  092%=      5-min Rain = 0
KMD1 201001Z 20003KT 23/22 A2981 RMK A01 T02340220  RH  092%=      5-min Rain = 0
KMD1 201002Z 21002KT 23/22 A2981 RMK A01 T02340220  RH  092%=      5-min Rain = 0
KMD1 201003Z 21003KT 23/22 A2981 RMK A01 T02330220  RH  092%=      5-min Rain = 0
KMD1 201004Z 23002KT 23/22 A2981 RMK A01 T02330221  RH  092%=      5-min Rain = 0
KMD1 201005Z 25002KT 24/22 A2981 RMK A01 T02350221  RH  092%=      5-min Rain = 0
KMD1 201006Z 28002KT 24/22 A2981 RMK A01 T02350220  RH  092%=      5-min Rain = 0
KMD1 201007Z 29003KT 23/22 A2981 RMK A01 T02340220  RH  091%=      5-min Rain = 0
KMD1 201008Z 29003KT 24/22 A2981 RMK A01 T02350220  RH  091%=      5-min Rain = 0
KMD1 201009Z 29003KT 23/22 A2981 RMK A01 T02340220  RH  092%=      5-min Rain = 0
KMD1 201010Z 29003KT 23/22 A2981 RMK A01 T02340220  RH  092%=      5-min Rain = 0
KMD1 201011Z 28003KT 23/22 A2981 RMK A01 T02340221  RH  092%=      5-min Rain = 0
KMD1 201012Z 27002KT 23/22 A2981 RMK A01 T02340222  RH  093%=      5-min Rain = 0
KMD1 201013Z 27002KT 24/22 A2981 RMK A01 T02350222  RH  092%=      5-min Rain = 0
KMD1 201014Z 25002KT 24/22 A2981 RMK A01 T02360223  RH  092%=      5-min Rain = 0
KMD1 201015Z 24001KT 24/22 A2981 RMK A01 T02360222  RH  092%=      5-min Rain = 0
KMD1 201016Z 24002KT 24/22 A2981 RMK A01 T02360222  RH  092%=      5-min Rain = 0
KMD1 201017Z 25002KT 24/22 A2981 RMK A01 T02350222  RH  092%=      5-min Rain = 0
KMD1 201018Z 27002KT 24/22 A2982 RMK A01 T02360224  RH  093%=      5-min Rain = 0
KMD1 201019Z 27003KT 24/22 A2982 RMK A01 T02370224  RH  093%=      5-min Rain = 0
KMD1 201020Z 28003KT 24/23 A2982 RMK A01 T02380225  RH  092%=      5-min Rain = 0
KMD1 201021Z 28003KT 24/22 A2982 RMK A01 T02390224  RH  092%=      5-min Rain = 0
KMD1 201022Z 28003KT 24/22 A2982 RMK A01 T02390223  RH  091%=      5-min Rain = 0
KMD1 201023Z 28004KT 24/22 A2982 RMK A01 T02380223  RH  091%=      5-min Rain = 0
KMD1 201024Z 26003KT 24/22 A2982 RMK A01 T02380223  RH  091%=      5-min Rain = 0
KMD1 201025Z 25002KT 24/22 A2982 RMK A01 T02380224  RH  091%=      5-min Rain = 0
KMD1 201026Z 23001KT 24/22 A2982 RMK A01 T02380223  RH  091%=      5-min Rain = 0
KMD1 201027Z 23002KT 24/23 A2982 RMK A01 T02390225  RH  092%=      5-min Rain = 0
KMD1 201028Z 23002KT 24/23 A2982 RMK A01 T02400225  RH  092%=      5-min Rain = 0
KMD1 201029Z 24003KT 24/23 A2982 RMK A01 T02410225  RH  091%=      5-min Rain = 0
KMD1 201030Z 24002KT 24/23 A2982 RMK A01 T02420225  RH  090%=      5-min Rain = 0
KMD1 201031Z 24004KT 24/23 A2982 RMK A01 T02420225  RH  090%=      5-min Rain = 0
KMD1 201032Z 25003KT 24/23 A2982 RMK A01 T02430225  RH  090%=      5-min Rain = 0
KMD1 201033Z 26003KT 24/23 A2982 RMK A01 T02440226  RH  089%=      5-min Rain = 0
KMD1 201034Z 26003KT 25/23 A2982 RMK A01 T02450225  RH  089%=      5-min Rain = 0
KMD1 201035Z 25003KT 25/22 A2982 RMK A01 T02450224  RH  088%=      5-min Rain = 0
KMD1 201036Z 23003KT 25/23 A2982 RMK A01 T02450225  RH  089%=      5-min Rain = 0
KMD1 201037Z 23004KT 25/23 A2981 RMK A01 T02450225  RH  089%=      5-min Rain = 0
KMD1 201038Z 22004KT 25/22 A2981 RMK A01 T02450224  RH  088%=      5-min Rain = 0
KMD1 201039Z 22004KT 25/22 A2981 RMK A01 T02450224  RH  088%=      5-min Rain = 0
KMD1 201040Z 21003KT 25/22 A2981 RMK A01 T02450224  RH  088%=      5-min Rain = 0
KMD1 201041Z 20003KT 25/22 A2981 RMK A01 T02450224  RH  088%=      5-min Rain = 0
KMD1 201042Z 20003KT 24/22 A2981 RMK A01 T02440223  RH  088%=      5-min Rain = 0
KMD1 201043Z 20003KT 24/22 A2981 RMK A01 T02420222  RH  088%=      5-min Rain = 0
KMD1 201044Z 20003KT 24/22 A2981 RMK A01 T02390219  RH  088%=      5-min Rain = 0
KMD1 201045Z 21002KT 24/22 A2981 RMK A01 T02370219  RH  090%=      5-min Rain = 0
KMD1 201046Z 23002KT 24/22 A2981 RMK A01 T02350219  RH  090%=      5-min Rain = 0
KMD1 201047Z 23002KT 23/22 A2981 RMK A01 T02340219  RH  092%=      5-min Rain = 0
KMD1 201048Z 22003KT 23/22 A2981 RMK A01 T02330221  RH  092%=      5-min Rain = 0
KMD1 201049Z 21003KT 23/22 A2981 RMK A01 T02320220  RH  093%=      5-min Rain = 0
KMD1 201050Z 20004KT 23/22 A2981 RMK A01 T02330221  RH  093%=      5-min Rain = 0
KMD1 201051Z 20003KT 23/22 A2981 RMK A01 T02320221  RH  093%=      5-min Rain = 0
KMD1 201052Z 19004KT 23/22 A2981 RMK A01 T02310220  RH  093%=      5-min Rain = 0
KMD1 201053Z 19004KT 23/22 A2981 RMK A01 T02310219  RH  093%=      5-min Rain = 0
KMD1 201054Z 19004KT 23/22 A2981 RMK A01 T02300219  RH  094%=      5-min Rain = 0
KMD1 201055Z 20004KT 23/22 A2981 RMK A01 T02290219  RH  094%=      5-min Rain = 0
KMD1 201056Z 21003KT 23/22 A2981 RMK A01 T02290220  RH  095%=      5-min Rain = 0
KMD1 201057Z 22002KT 23/22 A2981 RMK A01 T02290220  RH  095%=      5-min Rain = 0
KMD1 201058Z 24002KT 23/22 A2981 RMK A01 T02290220  RH  095%=      5-min Rain = 0
KMD1 201059Z 26001KT 23/22 A2981 RMK A01 T02280219  RH  095%=      5-min Rain = 0
KMD1 201100Z 31002KT 23/22 A2981 RMK A01 T02280219  RH  095%=      5-min Rain = 0
KMD1 201101Z 32003KT 23/22 A2981 RMK A01 T02260216  RH  094%=      5-min Rain = 0
KMD1 201102Z 32003KT 23/22 A2981 RMK A01 T02250215  RH  094%=      5-min Rain = 0
KMD1 201103Z 32003KT 22/22 A2981 RMK A01 T02230215  RH  095%=      5-min Rain = 0
KMD1 201104Z 32002KT 22/22 A2981 RMK A01 T02230216  RH  096%=      5-min Rain = 0
KMD1 201105Z 33002KT 22/22 A2981 RMK A01 T02230216  RH  096%=      5-min Rain = 0
KMD1 201106Z 32002KT 22/22 A2981 RMK A01 T02240220  RH  097%=      5-min Rain = 0
KMD1 201107Z 33001KT 23/22 A2981 RMK A01 T02260222  RH  097%=      5-min Rain = 0
KMD1 201108Z 32001KT 23/22 A2981 RMK A01 T02270222  RH  097%=      5-min Rain = 0
KMD1 201109Z 33001KT 23/22 A2981 RMK A01 T02280222  RH  096%=      5-min Rain = 0
KMD1 201110Z 34001KT 23/22 A2981 RMK A01 T02280221  RH  096%=      5-min Rain = 0
KMD1 201111Z 36001KT 23/22 A2981 RMK A01 T02270219  RH  095%=      5-min Rain = 0
KMD1 201112Z 00001KT 23/22 A2981 RMK A01 T02260218  RH  095%=      5-min Rain = 0
KMD1 201113Z 00000KT 23/22 A2981 RMK A01 T02250216  RH  095%=      5-min Rain = 0
KMD1 201114Z 08000KT 22/22 A2981 RMK A01 T02240217  RH  096%=      5-min Rain = 0
KMD1 201115Z 15000KT 22/22 A2981 RMK A01 T02240218  RH  096%=      5-min Rain = 0
KMD1 201116Z 17001KT 22/22 A2981 RMK A01 T02240219  RH  097%=      5-min Rain = 0
KMD1 201117Z 18002KT 23/22 A2981 RMK A01 T02260221  RH  097%=      5-min Rain = 0
KMD1 201118Z 16002KT 23/22 A2981 RMK A01 T02270223  RH  097%=      5-min Rain = 0
KMD1 201119Z 17003KT 23/22 A2981 RMK A01 T02290223  RH  097%=      5-min Rain = 0
KMD1 201120Z 16003KT 23/22 A2981 RMK A01 T02290222  RH  096%=      5-min Rain = 0
KMD1 201121Z 16003KT 23/22 A2981 RMK A01 T02290221  RH  095%=      5-min Rain = 0
KMD1 201122Z 16003KT 23/22 A2981 RMK A01 T02290221  RH  095%=      5-min Rain = 0
KMD1 201123Z 16003KT 23/22 A2981 RMK A01 T02290221  RH  095%=      5-min Rain = 0
KMD1 201124Z 16004KT 23/22 A2981 RMK A01 T02290220  RH  095%=      5-min Rain = 0
KMD1 201125Z 16003KT 23/22 A2981 RMK A01 T02280219  RH  095%=      5-min Rain = 0
KMD1 201126Z 14003KT 23/22 A2981 RMK A01 T02270218  RH  094%=      5-min Rain = 0
KMD1 201127Z 17002KT 23/22 A2981 RMK A01 T02270218  RH  095%=      5-min Rain = 0
KMD1 201128Z 19002KT 23/22 A2982 RMK A01 T02270220  RH  096%=      5-min Rain = 0
KMD1 201129Z 18002KT 23/22 A2982 RMK A01 T02280222  RH  096%=      5-min Rain = 0
KMD1 201130Z 17002KT 23/22 A2982 RMK A01 T02290222  RH  096%=      5-min Rain = 0
KMD1 201131Z 16001KT 23/22 A2982 RMK A01 T02290222  RH  095%=      5-min Rain = 0
KMD1 201132Z 17001KT 23/22 A2982 RMK A01 T02290223  RH  096%=      5-min Rain = 0
KMD1 201133Z 17001KT 23/22 A2982 RMK A01 T02300224  RH  096%=      5-min Rain = 0
KMD1 201134Z 17002KT 23/22 A2982 RMK A01 T02310224  RH  096%=      5-min Rain = 0
KMD1 201135Z 17001KT 23/22 A2982 RMK A01 T02310223  RH  096%=      5-min Rain = 0
KMD1 201136Z 15002KT 23/22 A2982 RMK A01 T02300222  RH  095%=      5-min Rain = 0
KMD1 201137Z 14002KT 23/22 A2982 RMK A01 T02290221  RH  095%=      5-min Rain = 0
KMD1 201138Z 14002KT 23/22 A2982 RMK A01 T02290221  RH  095%=      5-min Rain = 0
KMD1 201139Z 13002KT 23/22 A2982 RMK A01 T02280221  RH  095%=      5-min Rain = 0
KMD1 201140Z 13002KT 23/22 A2982 RMK A01 T02280220  RH  095%=      5-min Rain = 0
KMD1 201141Z 14003KT 23/22 A2982 RMK A01 T02280220  RH  095%=      5-min Rain = 0
KMD1 201142Z 14003KT 23/22 A2982 RMK A01 T02270221  RH  096%=      5-min Rain = 0
KMD1 201143Z 14002KT 23/22 A2982 RMK A01 T02280222  RH  097%=      5-min Rain = 0
KMD1 201144Z 13002KT 23/22 A2982 RMK A01 T02280222  RH  096%=      5-min Rain = 0
KMD1 201145Z 13002KT 23/22 A2982 RMK A01 T02280222  RH  096%=      5-min Rain = 0
KMD1 201146Z 13002KT 23/22 A2982 RMK A01 T02270221  RH  096%=      5-min Rain = 0
KMD1 201147Z 13001KT 23/22 A2982 RMK A01 T02260220  RH  096%=      5-min Rain = 0
KMD1 201148Z 13002KT 23/22 A2982 RMK A01 T02260219  RH  096%=      5-min Rain = 0
KMD1 201149Z 14002KT 23/22 A2982 RMK A01 T02250219  RH  096%=      5-min Rain = 0
KMD1 201150Z 14002KT 23/22 A2982 RMK A01 T02260219  RH  096%=      5-min Rain = 0
KMD1 201151Z 14002KT 23/22 A2982 RMK A01 T02250219  RH  096%=      5-min Rain = 0
KMD1 201152Z 14002KT 23/22 A2982 RMK A01 T02250219  RH  096%=      5-min Rain = 0
KMD1 201153Z 14002KT 23/22 A2982 RMK A01 T02250220  RH  097%=      5-min Rain = 0
KMD1 201154Z 14001KT 23/22 A2982 RMK A01 T02260221  RH  097%=      5-min Rain = 0
KMD1 201155Z 14001KT 23/22 A2982 RMK A01 T02260223  RH  098%=      5-min Rain = 0
KMD1 201156Z 13001KT 23/22 A2982 RMK A01 T02270223  RH  098%=      5-min Rain = 0
KMD1 201157Z 11000KT 23/22 A2982 RMK A01 T02270223  RH  097%=      5-min Rain = 0
KMD1 201158Z 00000KT 23/22 A2982 RMK A01 T02270223  RH  097%=      5-min Rain = 0
KMD1 201159Z 00000KT 23/22 A2982 RMK A01 T02270223  RH  097%=      5-min Rain = 0
KMD1 201200Z 00000KT 23/22 A2982 RMK A01 T02280224  RH  098%=      5-min Rain = 0
KMD1 201201Z 00000KT 23/22 A2982 RMK A01 T02280224  RH  097%=      5-min Rain = 0
KMD1 201202Z 00000KT 23/23 A2983 RMK A01 T02290225  RH  098%=      5-min Rain = 0
KMD1 201203Z 00000KT 23/23 A2983 RMK A01 T02300226  RH  097%=      5-min Rain = 0
KMD1 201204Z 00000KT 23/22 A2983 RMK A01 T02300224  RH  097%=      5-min Rain = 0
KMD1 201205Z 00000KT 23/23 A2983 RMK A01 T02300225  RH  097%=      5-min Rain = 0
KMD1 201206Z 00000KT 23/23 A2983 RMK A01 T02300225  RH  097%=      5-min Rain = 0
KMD1 201207Z 20000KT 23/23 A2983 RMK A01 T02300225  RH  097%=      5-min Rain = 0
KMD1 201208Z 21000KT 23/23 A2983 RMK A01 T02310225  RH  097%=      5-min Rain = 0
KMD1 201209Z 21000KT 23/23 A2983 RMK A01 T02310225  RH  097%=      5-min Rain = 0
KMD1 201210Z 19000KT 23/23 A2983 RMK A01 T02310226  RH  096%=      5-min Rain = 0
KMD1 201211Z 19000KT 23/23 A2983 RMK A01 T02320226  RH  096%=      5-min Rain = 0
KMD1 201212Z 21000KT 23/23 A2983 RMK A01 T02320226  RH  096%=      5-min Rain = 0
KMD1 201213Z 00000KT 23/23 A2983 RMK A01 T02320225  RH  096%=      5-min Rain = 0
KMD1 201214Z 00000KT 23/23 A2983 RMK A01 T02320225  RH  096%=      5-min Rain = 0
KMD1 201215Z 00000KT 23/23 A2983 RMK A01 T02320225  RH  096%=      5-min Rain = 0
KMD1 201216Z 00000KT 23/23 A2983 RMK A01 T02320226  RH  096%=      5-min Rain = 0
KMD1 201217Z 00000KT 23/23 A2983 RMK A01 T02330226  RH  096%=      5-min Rain = 0
KMD1 201218Z 17000KT 23/23 A2983 RMK A01 T02340227  RH  096%=      5-min Rain = 0
KMD1 201219Z 18001KT 24/23 A2983 RMK A01 T02350228  RH  096%=      5-min Rain = 0
KMD1 201220Z 20002KT 24/23 A2983 RMK A01 T02350228  RH  096%=      5-min Rain = 0
KMD1 201221Z 20002KT 24/23 A2983 RMK A01 T02360229  RH  095%=      5-min Rain = 0
KMD1 201222Z 19002KT 24/23 A2983 RMK A01 T02370229  RH  095%=      5-min Rain = 0
KMD1 201223Z 20002KT 24/23 A2983 RMK A01 T02380230  RH  095%=      5-min Rain = 0
KMD1 201224Z 20002KT 24/23 A2983 RMK A01 T02390231  RH  095%=      5-min Rain = 0
KMD1 201225Z 20003KT 24/23 A2983 RMK A01 T02400231  RH  095%=      5-min Rain = 0
KMD1 201226Z 20003KT 24/23 A2983 RMK A01 T02400230  RH  094%=      5-min Rain = 0
KMD1 201227Z 20002KT 24/23 A2983 RMK A01 T02410231  RH  094%=      5-min Rain = 0
KMD1 201228Z 20001KT 24/23 A2983 RMK A01 T02410230  RH  094%=      5-min Rain = 0
KMD1 201229Z 20002KT 24/23 A2983 RMK A01 T02420231  RH  094%=      5-min Rain = 0
KMD1 201230Z 18001KT 24/23 A2983 RMK A01 T02420231  RH  094%=      5-min Rain = 0
KMD1 201231Z 18000KT 24/23 A2983 RMK A01 T02430231  RH  093%=      5-min Rain = 0
KMD1 201232Z 21002KT 24/23 A2983 RMK A01 T02430231  RH  093%=      5-min Rain = 0
KMD1 201233Z 24001KT 24/23 A2983 RMK A01 T02430231  RH  093%=      5-min Rain = 0
KMD1 201234Z 22001KT 24/23 A2983 RMK A01 T02430230  RH  093%=      5-min Rain = 0
KMD1 201235Z 22001KT 24/23 A2983 RMK A01 T02430230  RH  092%=      5-min Rain = 0
KMD1 201236Z 22001KT 24/23 A2983 RMK A01 T02430230  RH  093%=      5-min Rain = 0
KMD1 201237Z 20001KT 24/23 A2983 RMK A01 T02430231  RH  093%=      5-min Rain = 0
KMD1 201238Z 18001KT 24/23 A2984 RMK A01 T02430231  RH  093%=      5-min Rain = 0
KMD1 201239Z 18002KT 24/23 A2984 RMK A01 T02440231  RH  092%=      5-min Rain = 0
KMD1 201240Z 17001KT 24/23 A2984 RMK A01 T02440231  RH  092%=      5-min Rain = 0
KMD1 201241Z 17002KT 25/23 A2984 RMK A01 T02450231  RH  092%=      5-min Rain = 0
KMD1 201242Z 18002KT 25/23 A2984 RMK A01 T02450231  RH  092%=      5-min Rain = 0
KMD1 201243Z 16003KT 25/23 A2984 RMK A01 T02450231  RH  092%=      5-min Rain = 0
KMD1 201244Z 16003KT 25/23 A2984 RMK A01 T02460231  RH  092%=      5-min Rain = 0
KMD1 201245Z 16003KT 25/23 A2984 RMK A01 T02470233  RH  092%=      5-min Rain = 0
KMD1 201246Z 17003KT 25/23 A2984 RMK A01 T02470233  RH  092%=      5-min Rain = 0
KMD1 201247Z 16003KT 25/23 A2984 RMK A01 T02480234  RH  092%=      5-min Rain = 0
KMD1 201248Z 17004KT 25/24 A2984 RMK A01 T02480235  RH  092%=      5-min Rain = 0
KMD1 201249Z 18004KT 25/24 A2984 RMK A01 T02490235  RH  092%=      5-min Rain = 0
KMD1 201250Z 17003KT 25/24 A2984 RMK A01 T02490235  RH  092%=      5-min Rain = 0
KMD1 201251Z 17004KT 25/24 A2984 RMK A01 T02490235  RH  092%=      5-min Rain = 0
KMD1 201252Z 18005KT 25/24 A2984 RMK A01 T02500235  RH  092%=      5-min Rain = 0
KMD1 201253Z 17006KT 25/24 A2984 RMK A01 T02500235  RH  091%=      5-min Rain = 0
KMD1 201254Z 18004KT 25/24 A2984 RMK A01 T02500235  RH  091%=      5-min Rain = 0
KMD1 201255Z 18004KT 25/24 A2984 RMK A01 T02510236  RH  091%=      5-min Rain = 0
KMD1 201256Z 18004KT 25/24 A2984 RMK A01 T02520236  RH  091%=      5-min Rain = 0
KMD1 201257Z 19004KT 25/24 A2984 RMK A01 T02520236  RH  091%=      5-min Rain = 0
KMD1 201258Z 19005KT 25/24 A2984 RMK A01 T02520236  RH  091%=      5-min Rain = 0
KMD1 201259Z 19005KT 25/24 A2984 RMK A01 T02530236  RH  090%=      5-min Rain = 0
KMD1 201300Z 19004KT 25/24 A2984 RMK A01 T02530236  RH  090%=      5-min Rain = 0
KMD1 201301Z 20003KT 25/24 A2984 RMK A01 T02530236  RH  090%=      5-min Rain = 0
KMD1 201302Z 19003KT 25/24 A2984 RMK A01 T02540237  RH  090%=      5-min Rain = 0
KMD1 201303Z 17003KT 25/24 A2984 RMK A01 T02540236  RH  090%=      5-min Rain = 0
KMD1 201304Z 19003KT 26/24 A2984 RMK A01 T02550238  RH  090%=      5-min Rain = 0
KMD1 201305Z 18004KT 26/24 A2984 RMK A01 T02560238  RH  090%=      5-min Rain = 0
KMD1 201306Z 17005KT 26/24 A2984 RMK A01 T02560237  RH  089%=      5-min Rain = 0
KMD1 201307Z 17008KT 26/24 A2984 RMK A01 T02560236  RH  089%=      5-min Rain = 0
KMD1 201308Z 18006KT 26/24 A2984 RMK A01 T02560236  RH  089%=      5-min Rain = 0
KMD1 201309Z 19004KT 26/24 A2984 RMK A01 T02570237  RH  089%=      5-min Rain = 0
KMD1 201310Z 19005KT 26/24 A2984 RMK A01 T02570238  RH  089%=      5-min Rain = 0
KMD1 201311Z 19005KT 26/24 A2984 RMK A01 T02580237  RH  088%=      5-min Rain = 0
KMD1 201312Z 18005KT 26/24 A2984 RMK A01 T02580237  RH  088%=      5-min Rain = 0
KMD1 201313Z 20006KT 26/24 A2984 RMK A01 T02590238  RH  088%=      5-min Rain = 0
KMD1 201314Z 19005KT 26/24 A2984 RMK A01 T02590237  RH  087%=      5-min Rain = 0
KMD1 201315Z 19005KT 26/24 A2984 RMK A01 T02600237  RH  088%=      5-min Rain = 0
KMD1 201316Z 20006KT 26/24 A2984 RMK A01 T02600237  RH  087%=      5-min Rain = 0
KMD1 201317Z 19004KT 26/24 A2984 RMK A01 T02600237  RH  087%=      5-min Rain = 0
KMD1 201318Z 19005KT 26/24 A2984 RMK A01 T02610237  RH  087%=      5-min Rain = 0
KMD1 201319Z 20004KT 26/24 A2984 RMK A01 T02610236  RH  086%=      5-min Rain = 0
KMD1 201320Z 18004KT 26/24 A2984 RMK A01 T02620238  RH  087%=      5-min Rain = 0
KMD1 201321Z 18006KT 26/24 A2984 RMK A01 T02620237  RH  086%=      5-min Rain = 0
KMD1 201322Z 18006KT 26/24 A2984 RMK A01 T02620236  RH  086%=      5-min Rain = 0
KMD1 201323Z 20007KT 26/24 A2984 RMK A01 T02630236  RH  085%=      5-min Rain = 0
KMD1 201324Z 19008KT 26/24 A2984 RMK A01 T02630236  RH  085%=      5-min Rain = 0
KMD1 201325Z 19006KT 26/24 A2984 RMK A01 T02630236  RH  085%=      5-min Rain = 0
KMD1 201326Z 19006KT 26/24 A2984 RMK A01 T02630236  RH  085%=      5-min Rain = 0
KMD1 201327Z 19006KT 26/24 A2984 RMK A01 T02630236  RH  085%=      5-min Rain = 0
KMD1 201328Z 19007KT 26/24 A2984 RMK A01 T02630236  RH  085%=      5-min Rain = 0
KMD1 201329Z 19007KT 26/24 A2985 RMK A01 T02640235  RH  084%=      5-min Rain = 0
KMD1 201330Z 20007KT 26/24 A2985 RMK A01 T02640235  RH  084%=      5-min Rain = 0
KMD1 201331Z 19006KT 26/24 A2985 RMK A01 T02640235  RH  084%=      5-min Rain = 0
KMD1 201332Z 20006KT 27/24 A2985 RMK A01 T02650236  RH  084%=      5-min Rain = 0
KMD1 201333Z 21005KT 27/24 A2985 RMK A01 T02660237  RH  084%=      5-min Rain = 0
KMD1 201334Z 19005KT 27/24 A2985 RMK A01 T02670237  RH  084%=      5-min Rain = 0
KMD1 201335Z 19005KT 27/24 A2985 RMK A01 T02670238  RH  084%=      5-min Rain = 0
KMD1 201336Z 20004KT 27/24 A2985 RMK A01 T02680236  RH  083%=      5-min Rain = 0
KMD1 201337Z 20006KT 27/24 A2985 RMK A01 T02680238  RH  083%=      5-min Rain = 0
KMD1 201338Z 19006KT 27/24 A2985 RMK A01 T02680235  RH  082%=      5-min Rain = 0
KMD1 201339Z 19005KT 27/24 A2985 RMK A01 T02690235  RH  082%=      5-min Rain = 0
KMD1 201340Z 20004KT 27/24 A2985 RMK A01 T02690238  RH  083%=      5-min Rain = 0
KMD1 201341Z 20005KT 27/24 A2985 RMK A01 T02700238  RH  083%=      5-min Rain = 0
KMD1 201342Z 20007KT 27/24 A2985 RMK A01 T02700236  RH  082%=      5-min Rain = 0
KMD1 201343Z 20007KT 27/23 A2985 RMK A01 T02700233  RH  080%=      5-min Rain = 0
KMD1 201344Z 19008KT 27/23 A2985 RMK A01 T02700233  RH  080%=      5-min Rain = 0
KMD1 201345Z 20009KT 27/23 A2985 RMK A01 T02700232  RH  080%=      5-min Rain = 0
KMD1 201346Z 19007KT 27/23 A2985 RMK A01 T02700233  RH  080%=      5-min Rain = 0
KMD1 201347Z 19008KT 27/24 A2985 RMK A01 T02700235  RH  082%=      5-min Rain = 0
KMD1 201348Z 19008KT 27/23 A2985 RMK A01 T02690234  RH  081%=      5-min Rain = 0
KMD1 201349Z 20008KT 27/23 A2985 RMK A01 T02700232  RH  080%=      5-min Rain = 0
KMD1 201350Z 18005KT 27/24 A2985 RMK A01 T02700236  RH  082%=      5-min Rain = 0
KMD1 201351Z 20005KT 27/24 A2985 RMK A01 T02710237  RH  082%=      5-min Rain = 0
KMD1 201352Z 18007KT 27/24 A2985 RMK A01 T02720238  RH  082%=      5-min Rain = 0
KMD1 201353Z 19007KT 27/23 A2985 RMK A01 T02720234  RH  080%=      5-min Rain = 0
KMD1 201354Z 19008KT 27/23 A2985 RMK A01 T02720234  RH  080%=      5-min Rain = 0
KMD1 201355Z 19009KT 27/23 A2985 RMK A01 T02720232  RH  079%=      5-min Rain = 0
KMD1 201356Z 20005KT 27/23 A2985 RMK A01 T02720234  RH  080%=      5-min Rain = 0
KMD1 201357Z 19006KT 27/24 A2985 RMK A01 T02720235  RH  080%=      5-min Rain = 0
KMD1 201358Z 20006KT 27/24 A2985 RMK A01 T02730236  RH  080%=      5-min Rain = 0
KMD1 201359Z 20005KT 27/24 A2985 RMK A01 T02730237  RH  081%=      5-min Rain = 0
KMD1 201400Z 19005KT 27/24 A2985 RMK A01 T02740238  RH  080%=      5-min Rain = 0
KMD1 201401Z 19007KT 28/24 A2985 RMK A01 T02750237  RH  080%=      5-min Rain = 0
KMD1 201402Z 19008KT 28/24 A2985 RMK A01 T02750238  RH  080%=      5-min Rain = 0
KMD1 201403Z 18006KT 28/24 A2985 RMK A01 T02750237  RH  080%=      5-min Rain = 0
KMD1 201404Z 19005KT 28/24 A2985 RMK A01 T02760238  RH  080%=      5-min Rain = 0
KMD1 201405Z 18004KT 28/24 A2985 RMK A01 T02760240  RH  081%=      5-min Rain = 0
KMD1 201406Z 19006KT 28/24 A2985 RMK A01 T02770240  RH  080%=      5-min Rain = 0
KMD1 201407Z 19008KT 28/24 A2985 RMK A01 T02770236  RH  078%=      5-min Rain = 0
KMD1 201408Z 20009KT 28/23 A2985 RMK A01 T02770234  RH  078%=      5-min Rain = 0
KMD1 201409Z 20008KT 28/24 A2985 RMK A01 T02770235  RH  078%=      5-min Rain = 0
KMD1 201410Z 20008KT 28/23 A2985 RMK A01 T02770233  RH  077%=      5-min Rain = 0
KMD1 201411Z 20007KT 28/24 A2985 RMK A01 T02770235  RH  078%=      5-min Rain = 0
KMD1 201412Z 20008KT 28/23 A2985 RMK A01 T02770234  RH  077%=      5-min Rain = 0
KMD1 201413Z 20008KT 28/24 A2985 RMK A01 T02780235  RH  078%=      5-min Rain = 0
KMD1 201414Z 20009KT 28/24 A2985 RMK A01 T02780235  RH  078%=      5-min Rain = 0
KMD1 201415Z 20008KT 28/23 A2985 RMK A01 T02780234  RH  077%=      5-min Rain = 0
KMD1 201416Z 20006KT 28/24 A2985 RMK A01 T02780237  RH  078%=      5-min Rain = 0
KMD1 201417Z 20007KT 28/24 A2986 RMK A01 T02780237  RH  078%=      5-min Rain = 0
KMD1 201418Z 20007KT 28/23 A2986 RMK A01 T02790233  RH  076%=      5-min Rain = 0
KMD1 201419Z 20007KT 28/23 A2986 RMK A01 T02790232  RH  076%=      5-min Rain = 0
KMD1 201420Z 19007KT 28/23 A2986 RMK A01 T02790234  RH  076%=      5-min Rain = 0
KMD1 201421Z 19006KT 28/24 A2985 RMK A01 T02790235  RH  077%=      5-min Rain = 0
KMD1 201422Z 19006KT 28/24 A2986 RMK A01 T02800239  RH  078%=      5-min Rain = 0
KMD1 201423Z 19005KT 28/24 A2986 RMK A01 T02810237  RH  077%=      5-min Rain = 0
KMD1 201424Z 19007KT 28/24 A2986 RMK A01 T02820240  RH  078%=      5-min Rain = 0
KMD1 201425Z 19006KT 28/23 A2986 RMK A01 T02830234  RH  075%=      5-min Rain = 0
KMD1 201426Z 19008KT 28/24 A2986 RMK A01 T02830236  RH  076%=      5-min Rain = 0
KMD1 201427Z 18006KT 28/24 A2986 RMK A01 T02830235  RH  075%=      5-min Rain = 0
KMD1 201428Z 17007KT 28/24 A2986 RMK A01 T02840237  RH  076%=      5-min Rain = 0
KMD1 201429Z 18006KT 28/24 A2986 RMK A01 T02840236  RH  075%=      5-min Rain = 0
KMD1 201430Z 19006KT 28/23 A2986 RMK A01 T02840234  RH  074%=      5-min Rain = 0
KMD1 201431Z 19005KT 29/24 A2986 RMK A01 T02850240  RH  077%=      5-min Rain = 0
KMD1 201432Z 19005KT 29/24 A2986 RMK A01 T02860241  RH  077%=      5-min Rain = 0
KMD1 201433Z 20004KT 29/24 A2986 RMK A01 T02860239  RH  075%=      5-min Rain = 0
KMD1 201434Z 19005KT 29/24 A2986 RMK A01 T02870239  RH  075%=      5-min Rain = 0
KMD1 201435Z 19006KT 29/23 A2986 RMK A01 T02880234  RH  073%=      5-min Rain = 0
KMD1 201436Z 18005KT 29/24 A2986 RMK A01 T02890237  RH  074%=      5-min Rain = 0
KMD1 201437Z 21006KT 29/24 A2986 RMK A01 T02890235  RH  073%=      5-min Rain = 0
KMD1 201438Z 21006G11KT 29/23 A2986 RMK A01 T02900230  RH  070%=      5-min Rain = 0
KMD1 201439Z 20010KT 29/23 A2985 RMK A01 T02900228  RH  069%=      5-min Rain = 0
KMD1 201440Z 20009KT 29/23 A2985 RMK A01 T02900229  RH  069%=      5-min Rain = 0
KMD1 201441Z 20009KT 29/23 A2985 RMK A01 T02900230  RH  070%=      5-min Rain = 0
KMD1 201442Z 20008KT 29/23 A2985 RMK A01 T02900231  RH  071%=      5-min Rain = 0
KMD1 201443Z 20007KT 29/23 A2986 RMK A01 T02900230  RH  070%=      5-min Rain = 0
KMD1 201444Z 19006KT 29/24 A2986 RMK A01 T02910235  RH  072%=      5-min Rain = 0
KMD1 201445Z 21007KT 29/23 A2985 RMK A01 T02920233  RH  070%=      5-min Rain = 0
KMD1 201446Z 20007KT 29/23 A2985 RMK A01 T02920232  RH  070%=      5-min Rain = 0
KMD1 201447Z 19007KT 29/24 A2985 RMK A01 T02930236  RH  071%=      5-min Rain = 0
KMD1 201448Z 20009KT 29/23 A2985 RMK A01 T02930229  RH  068%=      5-min Rain = 0
KMD1 201449Z 20009KT 29/23 A2985 RMK A01 T02940229  RH  068%=      5-min Rain = 0
KMD1 201450Z 20009KT 29/23 A2985 RMK A01 T02930227  RH  068%=      5-min Rain = 0
KMD1 201451Z 20009KT 29/23 A2985 RMK A01 T02930228  RH  068%=      5-min Rain = 0
KMD1 201452Z 19008KT 29/23 A2986 RMK A01 T02930229  RH  069%=      5-min Rain = 0
KMD1 201453Z 20007KT 29/23 A2986 RMK A01 T02930232  RH  070%=      5-min Rain = 0
KMD1 201454Z 20008KT 29/23 A2986 RMK A01 T02930233  RH  070%=      5-min Rain = 0
KMD1 201455Z 20009KT 29/23 A2986 RMK A01 T02940228  RH  068%=      5-min Rain = 0
KMD1 201456Z 21009KT 29/23 A2986 RMK A01 T02940228  RH  068%=      5-min Rain = 0
KMD1 201457Z 21006KT 29/23 A2986 RMK A01 T02940229  RH  068%=      5-min Rain = 0
KMD1 201458Z 21008KT 30/23 A2986 RMK A01 T02950231  RH  068%=      5-min Rain = 0
KMD1 201459Z 19008KT 30/23 A2986 RMK A01 T02960231  RH  068%=      5-min Rain = 0
KMD1 201500Z 19007KT 30/23 A2986 RMK A01 T02960229  RH  067%=      5-min Rain = 0
KMD1 201501Z 21006KT 30/23 A2986 RMK A01 T02960232  RH  069%=      5-min Rain = 0
KMD1 201502Z 20007KT 30/23 A2986 RMK A01 T02960230  RH  068%=      5-min Rain = 0
KMD1 201503Z 20007KT 30/23 A2986 RMK A01 T02970232  RH  068%=      5-min Rain = 0
KMD1 201504Z 18007KT 30/23 A2986 RMK A01 T02970231  RH  068%=      5-min Rain = 0
KMD1 201505Z 19008KT 30/23 A2986 RMK A01 T02970231  RH  068%=      5-min Rain = 0
KMD1 201506Z 18009KT 30/23 A2986 RMK A01 T02970229  RH  067%=      5-min Rain = 0
KMD1 201507Z 18009KT 30/23 A2986 RMK A01 T02970227  RH  066%=      5-min Rain = 0
KMD1 201508Z 19007KT 30/23 A2986 RMK A01 T02970229  RH  067%=      5-min Rain = 0
KMD1 201509Z 18006KT 30/24 A2986 RMK A01 T02980237  RH  070%=      5-min Rain = 0
KMD1 201510Z 19008KT 30/23 A2986 RMK A01 T02980231  RH  067%=      5-min Rain = 0
KMD1 201511Z 19007KT 30/23 A2986 RMK A01 T02980232  RH  068%=      5-min Rain = 0
KMD1 201512Z 19006KT 30/23 A2986 RMK A01 T02980233  RH  068%=      5-min Rain = 0
KMD1 201513Z 17006KT 30/24 A2986 RMK A01 T02990239  RH  071%=      5-min Rain = 0
KMD1 201514Z 18008KT 30/24 A2986 RMK A01 T03000238  RH  069%=      5-min Rain = 0
KMD1 201515Z 19007KT 30/23 A2986 RMK A01 T03010233  RH  067%=      5-min Rain = 0
KMD1 201516Z 20007KT 30/23 A2986 RMK A01 T03010231  RH  066%=      5-min Rain = 0
KMD1 201517Z 20007KT 30/23 A2986 RMK A01 T03010230  RH  066%=      5-min Rain = 0
KMD1 201518Z 20008KT 30/23 A2986 RMK A01 T03010231  RH  066%=      5-min Rain = 0
KMD1 201519Z 18008KT 30/24 A2986 RMK A01 T03010235  RH  067%=      5-min Rain = 0
KMD1 201520Z 21005KT 30/24 A2986 RMK A01 T03020238  RH  069%=      5-min Rain = 0
KMD1 201521Z 20005KT 30/23 A2986 RMK A01 T03020233  RH  067%=      5-min Rain = 0
KMD1 201522Z 17007KT 30/24 A2986 RMK A01 T03030238  RH  068%=      5-min Rain = 0
KMD1 201523Z 19008KT 30/24 A2986 RMK A01 T03040238  RH  068%=      5-min Rain = 0
KMD1 201524Z 20008KT 30/23 A2986 RMK A01 T03040233  RH  066%=      5-min Rain = 0
KMD1 201525Z 18009KT 30/24 A2986 RMK A01 T03030235  RH  067%=      5-min Rain = 0
KMD1 201526Z 20008KT 30/23 A2986 RMK A01 T03030232  RH  066%=      5-min Rain = 0
KMD1 201527Z 20006KT 30/23 A2986 RMK A01 T03030232  RH  066%=      5-min Rain = 0
KMD1 201528Z 20008KT 30/23 A2986 RMK A01 T03040226  RH  063%=      5-min Rain = 0
KMD1 201529Z 19009KT 31/23 A2986 RMK A01 T03050229  RH  064%=      5-min Rain = 0
KMD1 201530Z 19007KT 30/23 A2986 RMK A01 T03040229  RH  064%=      5-min Rain = 0
KMD1 201531Z 18007KT 30/24 A2986 RMK A01 T03040237  RH  067%=      5-min Rain = 0
KMD1 201532Z 19009KT 30/23 A2986 RMK A01 T03040229  RH  064%=      5-min Rain = 0
KMD1 201533Z 19007KT 30/23 A2986 RMK A01 T03040232  RH  065%=      5-min Rain = 0
KMD1 201534Z 20008KT 30/23 A2986 RMK A01 T03040234  RH  066%=      5-min Rain = 0
KMD1 201535Z 18009KT 30/24 A2986 RMK A01 T03040235  RH  067%=      5-min Rain = 0
KMD1 201536Z 19007KT 30/23 A2986 RMK A01 T03040229  RH  064%=      5-min Rain = 0
KMD1 201537Z 19006G11KT 31/24 A2986 RMK A01 T03050238  RH  067%=      5-min Rain = 0
KMD1 201538Z 19010KT 31/24 A2986 RMK A01 T03060235  RH  066%=      5-min Rain = 0
KMD1 201539Z 19011KT 31/22 A2986 RMK A01 T03060224  RH  062%=      5-min Rain = 0
KMD1 201540Z 19007KT 31/23 A2986 RMK A01 T03050227  RH  063%=      5-min Rain = 0
KMD1 201541Z 21008KT 31/23 A2986 RMK A01 T03050229  RH  064%=      5-min Rain = 0
KMD1 201542Z 21007KT 31/23 A2986 RMK A01 T03060230  RH  064%=      5-min Rain = 0
KMD1 201543Z 19009KT 31/23 A2986 RMK A01 T03070234  RH  065%=      5-min Rain = 0
KMD1 201544Z 19009KT 31/23 A2986 RMK A01 T03090230  RH  063%=      5-min Rain = 0
KMD1 201545Z 18009KT 31/23 A2986 RMK A01 T03090231  RH  063%=      5-min Rain = 0
KMD1 201546Z 19010KT 31/23 A2986 RMK A01 T03090230  RH  063%=      5-min Rain = 0
KMD1 201547Z 19008KT 31/23 A2986 RMK A01 T03080233  RH  064%=      5-min Rain = 0
KMD1 201548Z 20009KT 31/23 A2986 RMK A01 T03080231  RH  064%=      5-min Rain = 0
KMD1 201549Z 20009KT 31/23 A2986 RMK A01 T03080227  RH  062%=      5-min Rain = 0
KMD1 201550Z 20008KT 31/23 A2986 RMK A01 T03080231  RH  064%=      5-min Rain = 0
KMD1 201551Z 19007KT 31/23 A2986 RMK A01 T03090234  RH  065%=      5-min Rain = 0
KMD1 201552Z 18008KT 31/23 A2986 RMK A01 T03090232  RH  064%=      5-min Rain = 0
KMD1 201553Z 18009KT 31/23 A2986 RMK A01 T03090229  RH  062%=      5-min Rain = 0
KMD1 201554Z 18009KT 31/23 A2986 RMK A01 T03100229  RH  062%=      5-min Rain = 0
KMD1 201555Z 19009KT 31/23 A2986 RMK A01 T03100228  RH  062%=      5-min Rain = 0
KMD1 201556Z 20008KT 31/23 A2986 RMK A01 T03100229  RH  062%=      5-min Rain = 0
KMD1 201557Z 18008KT 31/23 A2986 RMK A01 T03100232  RH  063%=      5-min Rain = 0
KMD1 201558Z 19011KT 31/23 A2986 RMK A01 T03110232  RH  063%=      5-min Rain = 0
KMD1 201559Z 19010KT 31/23 A2986 RMK A01 T03110228  RH  061%=      5-min Rain = 0
KMD1 201600Z 19009KT 31/23 A2986 RMK A01 T03110227  RH  061%=      5-min Rain = 0
KMD1 201601Z 20010KT 31/23 A2986 RMK A01 T03110228  RH  062%=      5-min Rain = 0
KMD1 201602Z 20008KT 31/23 A2986 RMK A01 T03110232  RH  063%=      5-min Rain = 0
KMD1 201603Z 19009KT 31/23 A2986 RMK A01 T03130230  RH  061%=      5-min Rain = 0
KMD1 201604Z 19008KT 31/23 A2986 RMK A01 T03130232  RH  062%=      5-min Rain = 0
KMD1 201605Z 19009KT 31/23 A2986 RMK A01 T03130227  RH  060%=      5-min Rain = 0
KMD1 201606Z 19007KT 31/23 A2986 RMK A01 T03140233  RH  062%=      5-min Rain = 0
KMD1 201607Z 19008KT 31/23 A2986 RMK A01 T03140227  RH  060%=      5-min Rain = 0
KMD1 201608Z 18008KT 32/23 A2986 RMK A01 T03150229  RH  060%=      5-min Rain = 0
KMD1 201609Z 20009KT 32/23 A2986 RMK A01 T03150232  RH  061%=      5-min Rain = 0
KMD1 201610Z 21008KT 32/23 A2986 RMK A01 T03150225  RH  059%=      5-min Rain = 0
KMD1 201611Z 20009KT 32/23 A2986 RMK A01 T03150227  RH  060%=      5-min Rain = 0
KMD1 201612Z 20007KT 32/23 A2986 RMK A01 T03160229  RH  060%=      5-min Rain = 0
KMD1 201613Z 20007KT 32/23 A2986 RMK A01 T03160229  RH  060%=      5-min Rain = 0
KMD1 201614Z 20007KT 32/23 A2986 RMK A01 T03160230  RH  060%=      5-min Rain = 0
KMD1 201615Z 19007KT 32/23 A2986 RMK A01 T03170227  RH  059%=      5-min Rain = 0
KMD1 201616Z 21008KT 32/24 A2986 RMK A01 T03180235  RH  061%=      5-min Rain = 0
KMD1 201617Z 21007KT 32/24 A2986 RMK A01 T03180238  RH  063%=      5-min Rain = 0
KMD1 201618Z 19007KT 32/24 A2986 RMK A01 T03180235  RH  062%=      5-min Rain = 0
KMD1 201619Z 18009KT 32/23 A2986 RMK A01 T03190228  RH  059%=      5-min Rain = 0
KMD1 201620Z 19009KT 32/23 A2986 RMK A01 T03190229  RH  059%=      5-min Rain = 0
KMD1 201621Z 20009KT 32/22 A2986 RMK A01 T03180221  RH  056%=      5-min Rain = 0
KMD1 201622Z 20007KT 32/22 A2986 RMK A01 T03180224  RH  057%=      5-min Rain = 0
KMD1 201623Z 18010KT 32/23 A2986 RMK A01 T03180225  RH  058%=      5-min Rain = 0
KMD1 201624Z 19009KT 32/23 A2986 RMK A01 T03180229  RH  059%=      5-min Rain = 0
KMD1 201625Z 20010KT 32/23 A2986 RMK A01 T03180225  RH  058%=      5-min Rain = 0
KMD1 201626Z 21012KT 32/22 A2986 RMK A01 T03190221  RH  056%=      5-min Rain = 0
KMD1 201627Z 21010KT 32/22 A2986 RMK A01 T03190223  RH  057%=      5-min Rain = 0
KMD1 201628Z 21008KT 32/23 A2986 RMK A01 T03190225  RH  058%=      5-min Rain = 0
KMD1 201629Z 20010KT 32/22 A2986 RMK A01 T03200223  RH  057%=      5-min Rain = 0
KMD1 201630Z 19010KT 32/22 A2986 RMK A01 T03210222  RH  056%=      5-min Rain = 0
KMD1 201631Z 18011KT 32/23 A2986 RMK A01 T03200226  RH  058%=      5-min Rain = 0
KMD1 201632Z 20010KT 32/23 A2986 RMK A01 T03190227  RH  058%=      5-min Rain = 0
KMD1 201633Z 20010KT 32/22 A2986 RMK A01 T03190222  RH  056%=      5-min Rain = 0
KMD1 201634Z 20009KT 32/22 A2986 RMK A01 T03190223  RH  057%=      5-min Rain = 0
KMD1 201635Z 20011KT 32/22 A2986 RMK A01 T03200224  RH  057%=      5-min Rain = 0
KMD1 201641Z 18010KT 32/23 A2986 RMK A01 T03230226  RH  057%=      5-min Rain = 0
KMD1 201642Z 19010KT 32/24 A2986 RMK A01 T03230236  RH  060%=      5-min Rain = 0
KMD1 201643Z 20010KT 32/22 A2986 RMK A01 T03230223  RH  056%=      5-min Rain = 0
KMD1 201644Z 21011KT 32/22 A2986 RMK A01 T03220223  RH  056%=      5-min Rain = 0
KMD1 201645Z 21011KT 32/22 A2986 RMK A01 T03220223  RH  056%=      5-min Rain = 0
KMD1 201646Z 22008KT 32/22 A2986 RMK A01 T03220224  RH  056%=      5-min Rain = 0
KMD1 201647Z 22007KT 32/22 A2986 RMK A01 T03220224  RH  056%=      5-min Rain = 0
KMD1 201648Z 19007KT 32/23 A2986 RMK A01 T03220226  RH  057%=      5-min Rain = 0
KMD1 201649Z 19013KT 32/22 A2986 RMK A01 T03240224  RH  056%=      5-min Rain = 0
KMD1 201650Z 21010G15KT 32/22 A2986 RMK A01 T03240224  RH  056%=      5-min Rain = 0
KMD1 201651Z 21011KT 32/23 A2986 RMK A01 T03230225  RH  056%=      5-min Rain = 0
KMD1 201652Z 21009KT 32/23 A2986 RMK A01 T03220225  RH  057%=      5-min Rain = 0
KMD1 201653Z 21006KT 32/23 A2986 RMK A01 T03230225  RH  057%=      5-min Rain = 0
KMD1 201654Z 20006KT 32/23 A2986 RMK A01 T03230231  RH  058%=      5-min Rain = 0
KMD1 201655Z 20007KT 33/23 A2986 RMK A01 T03250230  RH  057%=      5-min Rain = 0
KMD1 201656Z 21011KT 33/22 A2986 RMK A01 T03270223  RH  055%=      5-min Rain = 0
KMD1 201657Z 20008KT 33/22 A2986 RMK A01 T03260219  RH  053%=      5-min Rain = 0
KMD1 201658Z 20008KT 33/22 A2986 RMK A01 T03250223  RH  055%=      5-min Rain = 0
KMD1 201659Z 20008KT 33/23 A2986 RMK A01 T03250228  RH  057%=      5-min Rain = 0
KMD1 201700Z 23008KT 33/23 A2986 RMK A01 T03250225  RH  056%=      5-min Rain = 0
KMD1 201701Z 20007KT 33/22 A2986 RMK A01 T03250223  RH  055%=      5-min Rain = 0
KMD1 201702Z 19008KT 33/23 A2986 RMK A01 T03260228  RH  056%=      5-min Rain = 0
KMD1 201703Z 19010KT 33/23 A2986 RMK A01 T03260233  RH  058%=      5-min Rain = 0
KMD1 201704Z 19009KT 33/23 A2986 RMK A01 T03260230  RH  057%=      5-min Rain = 0
KMD1 201705Z 18009KT 33/23 A2986 RMK A01 T03260231  RH  057%=      5-min Rain = 0
KMD1 201706Z 20009KT 33/23 A2986 RMK A01 T03260227  RH  056%=      5-min Rain = 0
KMD1 201707Z 20010G15KT 33/23 A2986 RMK A01 T03270227  RH  056%=      5-min Rain = 0
KMD1 201708Z 20011KT 33/22 A2986 RMK A01 T03270222  RH  054%=      5-min Rain = 0
KMD1 201709Z 20011KT 33/22 A2986 RMK A01 T03270224  RH  055%=      5-min Rain = 0
KMD1 201710Z 19011KT 33/22 A2986 RMK A01 T03270222  RH  054%=      5-min Rain = 0
KMD1 201711Z 20008KT 33/23 A2986 RMK A01 T03260229  RH  057%=      5-min Rain = 0
KMD1 201712Z 18008KT 33/23 A2986 RMK A01 T03260232  RH  058%=      5-min Rain = 0
KMD1 201713Z 18010KT 33/23 A2986 RMK A01 T03260227  RH  056%=      5-min Rain = 0
KMD1 201714Z 20009KT 33/23 A2986 RMK A01 T03260228  RH  056%=      5-min Rain = 0
KMD1 201715Z 21008KT 33/22 A2986 RMK A01 T03260223  RH  055%=      5-min Rain = 0
KMD1 201716Z 22009KT 33/22 A2986 RMK A01 T03270222  RH  054%=      5-min Rain = 0
KMD1 201717Z 22009KT 33/22 A2986 RMK A01 T03280219  RH  053%=      5-min Rain = 0
KMD1 201718Z 21010KT 33/22 A2986 RMK A01 T03280223  RH  054%=      5-min Rain = 0
KMD1 201719Z 21009KT 33/22 A2986 RMK A01 T03280220  RH  053%=      5-min Rain = 0
KMD1 201720Z 20008KT 33/22 A2986 RMK A01 T03280223  RH  054%=      5-min Rain = 0
KMD1 201721Z 20009KT 33/23 A2986 RMK A01 T03280225  RH  055%=      5-min Rain = 0
KMD1 201722Z 21010KT 33/23 A2986 RMK A01 T03290225  RH  054%=      5-min Rain = 0
KMD1 201723Z 19009KT 33/23 A2986 RMK A01 T03290225  RH  054%=      5-min Rain = 0
KMD1 201724Z 19008KT 33/23 A2986 RMK A01 T03290228  RH  055%=      5-min Rain = 0
KMD1 201725Z 18009KT 33/23 A2986 RMK A01 T03300226  RH  055%=      5-min Rain = 0
KMD1 201726Z 19008KT 33/22 A2986 RMK A01 T03310220  RH  052%=      5-min Rain = 0
KMD1 201727Z 19009G15KT 33/22 A2986 RMK A01 T03310223  RH  053%=      5-min Rain = 0
KMD1 201728Z 20011KT 33/22 A2986 RMK A01 T03310224  RH  053%=      5-min Rain = 0
KMD1 201729Z 20010KT 33/22 A2986 RMK A01 T03310223  RH  053%=      5-min Rain = 0
KMD1 201730Z 19011KT 33/22 A2986 RMK A01 T03300220  RH  053%=      5-min Rain = 0
KMD1 201731Z 20009KT 33/21 A2986 RMK A01 T03290214  RH  051%=      5-min Rain = 0
KMD1 201732Z 19010KT 33/23 A2985 RMK A01 T03300227  RH  055%=      5-min Rain = 0
KMD1 201733Z 18010G15KT 33/23 A2985 RMK A01 T03300226  RH  054%=      5-min Rain = 0
KMD1 201734Z 19010KT 33/23 A2985 RMK A01 T03300225  RH  054%=      5-min Rain = 0
KMD1 201735Z 20009KT 33/23 A2985 RMK A01 T03300225  RH  054%=      5-min Rain = 0
KMD1 201736Z 20009G14KT 33/23 A2985 RMK A01 T03300227  RH  055%=      5-min Rain = 0
KMD1 201737Z 19009KT 33/22 A2985 RMK A01 T03310223  RH  053%=      5-min Rain = 0
KMD1 201738Z 18011KT 33/23 A2985 RMK A01 T03310228  RH  055%=      5-min Rain = 0
KMD1 201739Z 18009KT 33/22 A2985 RMK A01 T03310221  RH  053%=      5-min Rain = 0
KMD1 201740Z 18008KT 33/23 A2985 RMK A01 T03300226  RH  054%=      5-min Rain = 0
KMD1 201741Z 21008KT 33/23 A2985 RMK A01 T03310233  RH  057%=      5-min Rain = 0
KMD1 201742Z 20010KT 33/22 A2985 RMK A01 T03320220  RH  052%=      5-min Rain = 0
KMD1 201743Z 19009KT 33/22 A2985 RMK A01 T03340223  RH  052%=      5-min Rain = 0
KMD1 201744Z 19010KT 33/23 A2985 RMK A01 T03340228  RH  054%=      5-min Rain = 0
KMD1 201745Z 21009G14KT 33/23 A2985 RMK A01 T03340225  RH  053%=      5-min Rain = 0
KMD1 201746Z 20009KT 33/22 A2985 RMK A01 T03340222  RH  052%=      5-min Rain = 0
KMD1 201747Z 21008KT 33/22 A2985 RMK A01 T03340220  RH  051%=      5-min Rain = 0
KMD1 201748Z 19008KT 33/23 A2985 RMK A01 T03340226  RH  053%=      5-min Rain = 0
KMD1 201749Z 18009KT 33/23 A2985 RMK A01 T03340225  RH  053%=      5-min Rain = 0
KMD1 201750Z 19009KT 33/23 A2985 RMK A01 T03340225  RH  053%=      5-min Rain = 0
KMD1 201751Z 21009KT 33/23 A2985 RMK A01 T03340225  RH  053%=      5-min Rain = 0
KMD1 201752Z 20009KT 33/22 A2985 RMK A01 T03340221  RH  052%=      5-min Rain = 0
KMD1 201753Z 19009KT 33/23 A2985 RMK A01 T03340227  RH  054%=      5-min Rain = 0
KMD1 201754Z 20008KT 34/23 A2985 RMK A01 T03350229  RH  054%=      5-min Rain = 0
KMD1 201755Z 20008KT 33/23 A2985 RMK A01 T03340231  RH  055%=      5-min Rain = 0
KMD1 201756Z 20008KT 34/22 A2985 RMK A01 T03350220  RH  051%=      5-min Rain = 0
KMD1 201757Z 20008KT 34/23 A2985 RMK A01 T03360231  RH  054%=      5-min Rain = 0
KMD1 201758Z 20008KT 34/22 A2985 RMK A01 T03370224  RH  052%=      5-min Rain = 0
KMD1 201759Z 22008G13KT 34/22 A2985 RMK A01 T03380224  RH  052%=      5-min Rain = 0
KMD1 201800Z 20010KT 34/22 A2985 RMK A01 T03380224  RH  051%=      5-min Rain = 0
KMD1 201801Z 20009KT 34/22 A2985 RMK A01 T03370219  RH  050%=      5-min Rain = 0
KMD1 201802Z 21010KT 34/22 A2985 RMK A01 T03350220  RH  051%=      5-min Rain = 0
KMD1 201803Z 21011KT 34/22 A2985 RMK A01 T03350215  RH  050%=      5-min Rain = 0
KMD1 201804Z 20011KT 34/21 A2985 RMK A01 T03350210  RH  048%=      5-min Rain = 0
KMD1 201805Z 20009KT 34/21 A2985 RMK A01 T03350211  RH  048%=      5-min Rain = 0
KMD1 201806Z 21008KT 34/22 A2985 RMK A01 T03350221  RH  051%=      5-min Rain = 0
KMD1 201807Z 20007KT 34/22 A2985 RMK A01 T03360224  RH  052%=      5-min Rain = 0
KMD1 201808Z 19011KT 34/22 A2985 RMK A01 T03370223  RH  051%=      5-min Rain = 0
KMD1 201809Z 20013KT 34/22 A2985 RMK A01 T03370223  RH  052%=      5-min Rain = 0
KMD1 201810Z 21012KT 34/22 A2985 RMK A01 T03370222  RH  051%=      5-min Rain = 0
KMD1 201811Z 20011G16KT 34/22 A2985 RMK A01 T03370220  RH  051%=      5-min Rain = 0
KMD1 201812Z 20009KT 34/22 A2985 RMK A01 T03360223  RH  052%=      5-min Rain = 0
KMD1 201813Z 20013KT 34/22 A2985 RMK A01 T03350219  RH  051%=      5-min Rain = 0
KMD1 201814Z 20011KT 34/22 A2985 RMK A01 T03350219  RH  051%=      5-min Rain = 0
KMD1 201815Z 19009KT 34/23 A2985 RMK A01 T03350225  RH  053%=      5-min Rain = 0
KMD1 201816Z 18010G15KT 34/22 A2985 RMK A01 T03350223  RH  052%=      5-min Rain = 0
KMD1 201817Z 20012KT 34/22 A2985 RMK A01 T03350223  RH  052%=      5-min Rain = 0
KMD1 201818Z 22012KT 34/22 A2985 RMK A01 T03370222  RH  051%=      5-min Rain = 0
KMD1 201819Z 22013KT 34/22 A2985 RMK A01 T03380216  RH  049%=      5-min Rain = 0
KMD1 201820Z 22009KT 34/22 A2985 RMK A01 T03380220  RH  050%=      5-min Rain = 0
KMD1 201821Z 22008KT 34/22 A2985 RMK A01 T03370223  RH  051%=      5-min Rain = 0
KMD1 201822Z 22008KT 34/22 A2985 RMK A01 T03370220  RH  050%=      5-min Rain = 0
KMD1 201823Z 23010KT 34/22 A2985 RMK A01 T03390224  RH  051%=      5-min Rain = 0
KMD1 201824Z 21010G15KT 34/23 A2985 RMK A01 T03400226  RH  052%=      5-min Rain = 0
KMD1 201825Z 20011KT 34/22 A2985 RMK A01 T03400221  RH  050%=      5-min Rain = 0
KMD1 201826Z 22009KT 34/22 A2985 RMK A01 T03400224  RH  051%=      5-min Rain = 0
KMD1 201827Z 20011KT 34/23 A2985 RMK A01 T03390226  RH  052%=      5-min Rain = 0
KMD1 201828Z 21010KT 34/22 A2985 RMK A01 T03400216  RH  049%=      5-min Rain = 0
KMD1 201829Z 21008KT 34/22 A2985 RMK A01 T03380224  RH  051%=      5-min Rain = 0
KMD1 201830Z 21009KT 34/23 A2985 RMK A01 T03390228  RH  052%=      5-min Rain = 0
KMD1 201831Z 20012KT 34/22 A2985 RMK A01 T03400224  RH  051%=      5-min Rain = 0
KMD1 201832Z 21010KT 34/22 A2985 RMK A01 T03410221  RH  050%=      5-min Rain = 0
KMD1 201833Z 20010KT 34/22 A2985 RMK A01 T03400219  RH  049%=      5-min Rain = 0
KMD1 201834Z 19009KT 34/22 A2985 RMK A01 T03400219  RH  049%=      5-min Rain = 0
KMD1 201835Z 21011G16KT 34/22 A2985 RMK A01 T03380218  RH  050%=      5-min Rain = 0
KMD1 201836Z 21012KT 34/22 A2985 RMK A01 T03380218  RH  049%=      5-min Rain = 0
KMD1 201837Z 20012KT 34/22 A2985 RMK A01 T03390222  RH  050%=      5-min Rain = 0
KMD1 201838Z 20011KT 34/22 A2985 RMK A01 T03400218  RH  049%=      5-min Rain = 0
KMD1 201839Z 19009KT 34/22 A2985 RMK A01 T03390220  RH  050%=      5-min Rain = 0
KMD1 201840Z 19010G17KT 34/22 A2985 RMK A01 T03390220  RH  050%=      5-min Rain = 0
KMD1 201841Z 19013G19KT 34/22 A2985 RMK A01 T03380219  RH  050%=      5-min Rain = 0
KMD1 201842Z 20010KT 34/22 A2985 RMK A01 T03390220  RH  050%=      5-min Rain = 0
KMD1 201843Z 23008KT 34/23 A2985 RMK A01 T03390230  RH  053%=      5-min Rain = 0
KMD1 201844Z 24010KT 34/23 A2985 RMK A01 T03400227  RH  052%=      5-min Rain = 0
KMD1 201845Z 24010KT 34/22 A2985 RMK A01 T03410223  RH  050%=      5-min Rain = 0
KMD1 201846Z 21009KT 34/23 A2985 RMK A01 T03410228  RH  052%=      5-min Rain = 0
KMD1 201847Z 19011KT 34/23 A2985 RMK A01 T03420227  RH  051%=      5-min Rain = 0
KMD1 201848Z 20009KT 34/23 A2985 RMK A01 T03420230  RH  052%=      5-min Rain = 0
KMD1 201849Z 21010G15KT 34/23 A2985 RMK A01 T03410225  RH  051%=      5-min Rain = 0
KMD1 201850Z 21008KT 34/23 A2985 RMK A01 T03410229  RH  052%=      5-min Rain = 0
KMD1 201851Z 19010KT 34/23 A2985 RMK A01 T03420226  RH  051%=      5-min Rain = 0
KMD1 201852Z 18011KT 34/23 A2984 RMK A01 T03420226  RH  051%=      5-min Rain = 0
KMD1 201853Z 19013G18KT 34/22 A2984 RMK A01 T03420224  RH  051%=      5-min Rain = 0
KMD1 201854Z 20013KT 34/22 A2984 RMK A01 T03410223  RH  050%=      5-min Rain = 0
KMD1 201855Z 20012KT 34/22 A2984 RMK A01 T03420220  RH  049%=      5-min Rain = 0
KMD1 201856Z 21009KT 34/22 A2984 RMK A01 T03410219  RH  049%=      5-min Rain = 0
KMD1 201857Z 20009KT 34/22 A2984 RMK A01 T03410219  RH  049%=      5-min Rain = 0
KMD1 201858Z 21009KT 34/22 A2984 RMK A01 T03420222  RH  050%=      5-min Rain = 0
KMD1 201859Z 21012G17KT 34/22 A2984 RMK A01 T03420218  RH  048%=      5-min Rain = 0
KMD1 201900Z 22012KT 34/21 A2984 RMK A01 T03420214  RH  047%=      5-min Rain = 0
KMD1 201901Z 24010KT 34/21 A2984 RMK A01 T03420212  RH  047%=      5-min Rain = 0
KMD1 201902Z 22010KT 34/22 A2984 RMK A01 T03420224  RH  050%=      5-min Rain = 0
KMD1 201903Z 22007KT 34/22 A2984 RMK A01 T03420219  RH  049%=      5-min Rain = 0
KMD1 201904Z 21008KT 34/22 A2984 RMK A01 T03420220  RH  049%=      5-min Rain = 0
KMD1 201905Z 22009G17KT 34/23 A2984 RMK A01 T03420225  RH  051%=      5-min Rain = 0
KMD1 201906Z 22010G15KT 34/22 A2984 RMK A01 T03430220  RH  049%=      5-min Rain = 0
KMD1 201907Z 22011KT 35/22 A2984 RMK A01 T03450219  RH  048%=      5-min Rain = 0
KMD1 201908Z 21008KT 35/22 A2984 RMK A01 T03450217  RH  047%=      5-min Rain = 0
KMD1 201909Z 21008G14KT 34/23 A2984 RMK A01 T03440226  RH  050%=      5-min Rain = 0
KMD1 201910Z 22010KT 35/22 A2984 RMK A01 T03450219  RH  048%=      5-min Rain = 0
KMD1 201911Z 22011KT 35/22 A2984 RMK A01 T03450220  RH  048%=      5-min Rain = 0
KMD1 201912Z 19009KT 35/23 A2984 RMK A01 T03450225  RH  050%=      5-min Rain = 0
KMD1 201913Z 19009KT 34/22 A2984 RMK A01 T03440224  RH  050%=      5-min Rain = 0
KMD1 201914Z 20010KT 34/22 A2984 RMK A01 T03440223  RH  049%=      5-min Rain = 0
KMD1 201915Z 19009KT 35/22 A2984 RMK A01 T03450224  RH  050%=      5-min Rain = 0
KMD1 201916Z 19010KT 35/23 A2984 RMK A01 T03450232  RH  052%=      5-min Rain = 0
KMD1 201917Z 21009KT 35/23 A2984 RMK A01 T03450227  RH  050%=      5-min Rain = 0
KMD1 201918Z 22010KT 35/23 A2984 RMK A01 T03460225  RH  050%=      5-min Rain = 0
KMD1 201919Z 21011KT 35/22 A2984 RMK A01 T03460220  RH  048%=      5-min Rain = 0
KMD1 201920Z 21013G18KT 35/22 A2984 RMK A01 T03460219  RH  048%=      5-min Rain = 0
KMD1 201921Z 20015KT 35/22 A2984 RMK A01 T03460218  RH  048%=      5-min Rain = 0
KMD1 201922Z 19012KT 35/21 A2984 RMK A01 T03450214  RH  046%=      5-min Rain = 0
KMD1 201923Z 19011KT 34/22 A2984 RMK A01 T03440216  RH  047%=      5-min Rain = 0
KMD1 201924Z 18010KT 34/22 A2984 RMK A01 T03440222  RH  049%=      5-min Rain = 0
KMD1 201925Z 20008KT 34/23 A2984 RMK A01 T03440226  RH  050%=      5-min Rain = 0
KMD1 201926Z 20008KT 34/22 A2984 RMK A01 T03440224  RH  050%=      5-min Rain = 0
KMD1 201927Z 21009KT 35/23 A2984 RMK A01 T03450226  RH  050%=      5-min Rain = 0
KMD1 201928Z 22011KT 35/22 A2984 RMK A01 T03450220  RH  048%=      5-min Rain = 0
KMD1 201929Z 21009KT 35/22 A2984 RMK A01 T03450222  RH  049%=      5-min Rain = 0
KMD1 201930Z 20008KT 35/22 A2984 RMK A01 T03450221  RH  049%=      5-min Rain = 0
KMD1 201931Z 20011KT 35/22 A2984 RMK A01 T03460219  RH  048%=      5-min Rain = 0
KMD1 201932Z 21011KT 35/22 A2984 RMK A01 T03470215  RH  046%=      5-min Rain = 0
KMD1 201933Z 21013KT 35/22 A2984 RMK A01 T03470217  RH  047%=      5-min Rain = 0
KMD1 201934Z 23013KT 35/22 A2984 RMK A01 T03460215  RH  046%=      5-min Rain = 0
KMD1 201935Z 22011KT 35/22 A2984 RMK A01 T03460217  RH  047%=      5-min Rain = 0
KMD1 201936Z 23008G13KT 35/21 A2984 RMK A01 T03460214  RH  046%=      5-min Rain = 0
KMD1 201937Z 22008KT 35/22 A2984 RMK A01 T03470224  RH  049%=      5-min Rain = 0
KMD1 201938Z 21013KT 35/22 A2984 RMK A01 T03480215  RH  046%=      5-min Rain = 0
KMD1 201939Z 23010KT 35/22 A2984 RMK A01 T03480217  RH  047%=      5-min Rain = 0
KMD1 201940Z 21010KT 35/22 A2984 RMK A01 T03480223  RH  048%=      5-min Rain = 0
KMD1 201941Z 20009KT 35/22 A2984 RMK A01 T03470218  RH  047%=      5-min Rain = 0
KMD1 201942Z 19009KT 35/23 A2984 RMK A01 T03470228  RH  050%=      5-min Rain = 0
KMD1 201943Z 19009KT 35/22 A2984 RMK A01 T03470220  RH  048%=      5-min Rain = 0
KMD1 201944Z 22012KT 35/22 A2984 RMK A01 T03460224  RH  049%=      5-min Rain = 0
KMD1 201945Z 21011KT 35/21 A2983 RMK A01 T03460209  RH  045%=      5-min Rain = 0
KMD1 201946Z 23009G14KT 35/21 A2983 RMK A01 T03470212  RH  046%=      5-min Rain = 0
KMD1 201947Z 22011KT 35/22 A2983 RMK A01 T03480216  RH  046%=      5-min Rain = 0
KMD1 201948Z 22009KT 35/22 A2983 RMK A01 T03490215  RH  046%=      5-min Rain = 0
KMD1 201949Z 21007KT 35/22 A2983 RMK A01 T03490216  RH  046%=      5-min Rain = 0
KMD1 201950Z 21007KT 35/22 A2983 RMK A01 T03490216  RH  046%=      5-min Rain = 0
KMD1 201951Z 21005KT 35/23 A2983 RMK A01 T03510227  RH  049%=      5-min Rain = 0
KMD1 201952Z 22008KT 35/23 A2983 RMK A01 T03510229  RH  049%=      5-min Rain = 0
KMD1 201953Z 21011KT 35/23 A2983 RMK A01 T03520226  RH  048%=      5-min Rain = 0
KMD1 201954Z 21009KT 35/23 A2983 RMK A01 T03520228  RH  049%=      5-min Rain = 0
KMD1 201955Z 19008KT 35/23 A2983 RMK A01 T03520231  RH  050%=      5-min Rain = 0
KMD1 201956Z 19008KT 35/23 A2983 RMK A01 T03510228  RH  049%=      5-min Rain = 0
KMD1 201957Z 19008KT 35/23 A2983 RMK A01 T03500233  RH  051%=      5-min Rain = 0
KMD1 201958Z 20006KT 35/23 A2983 RMK A01 T03490227  RH  049%=      5-min Rain = 0
KMD1 201959Z 20006KT 35/23 A2983 RMK A01 T03490227  RH  049%=      5-min Rain = 0
KMD1 202000Z 20008KT 35/23 A2983 RMK A01 T03500232  RH  050%=      5-min Rain = 0
KMD1 202001Z 22007KT 35/23 A2983 RMK A01 T03510225  RH  048%=      5-min Rain = 0
KMD1 202002Z 23007KT 35/23 A2983 RMK A01 T03520228  RH  049%=      5-min Rain = 0
KMD1 202003Z 23008KT 35/22 A2983 RMK A01 T03510220  RH  046%=      5-min Rain = 0
KMD1 202004Z 24008KT 35/22 A2983 RMK A01 T03530221  RH  047%=      5-min Rain = 0
KMD1 202005Z 23009KT 35/22 A2983 RMK A01 T03510218  RH  046%=      5-min Rain = 0
KMD1 202006Z 23011KT 35/22 A2983 RMK A01 T03510218  RH  046%=      5-min Rain = 0
KMD1 202007Z 22010KT 35/22 A2983 RMK A01 T03510218  RH  046%=      5-min Rain = 0
KMD1 202008Z 23009KT 35/22 A2983 RMK A01 T03510220  RH  047%=      5-min Rain = 0
KMD1 202009Z 22010KT 35/22 A2983 RMK A01 T03510223  RH  047%=      5-min Rain = 0
KMD1 202010Z 22009KT 35/23 A2983 RMK A01 T03510228  RH  049%=      5-min Rain = 0
KMD1 202011Z 23011KT 35/23 A2983 RMK A01 T03500226  RH  049%=      5-min Rain = 0
KMD1 202012Z 23008KT 35/23 A2983 RMK A01 T03490232  RH  051%=      5-min Rain = 0
KMD1 202013Z 23008KT 35/23 A2983 RMK A01 T03490234  RH  051%=      5-min Rain = 0
KMD1 202014Z 23010KT 35/23 A2983 RMK A01 T03500229  RH  050%=      5-min Rain = 0
KMD1 202015Z 19009KT 35/23 A2983 RMK A01 T03500232  RH  051%=      5-min Rain = 0
KMD1 202016Z 19011KT 35/23 A2983 RMK A01 T03500233  RH  051%=      5-min Rain = 0
KMD1 202017Z 19013KT 35/23 A2982 RMK A01 T03500230  RH  050%=      5-min Rain = 0
KMD1 202018Z 19012KT 35/23 A2982 RMK A01 T03490234  RH  051%=      5-min Rain = 0
KMD1 202019Z 19012KT 35/23 A2982 RMK A01 T03480229  RH  050%=      5-min Rain = 0
KMD1 202020Z 19012KT 35/23 A2982 RMK A01 T03480231  RH  051%=      5-min Rain = 0
KMD1 202021Z 19010KT 35/23 A2982 RMK A01 T03470232  RH  052%=      5-min Rain = 0
KMD1 202022Z 20010KT 35/23 A2982 RMK A01 T03470233  RH  052%=      5-min Rain = 0
KMD1 202023Z 19006KT 35/23 A2982 RMK A01 T03470234  RH  052%=      5-min Rain = 0
KMD1 202024Z 17009KT 35/24 A2982 RMK A01 T03470238  RH  053%=      5-min Rain = 0
KMD1 202025Z 19007G12KT 35/24 A2982 RMK A01 T03470237  RH  053%=      5-min Rain = 0
KMD1 202026Z 20009KT 35/23 A2982 RMK A01 T03480233  RH  052%=      5-min Rain = 0
KMD1 202027Z 20006KT 35/23 A2982 RMK A01 T03490234  RH  051%=      5-min Rain = 0
KMD1 202028Z 20007KT 35/23 A2982 RMK A01 T03500234  RH  051%=      5-min Rain = 0
KMD1 202029Z 19007KT 35/24 A2982 RMK A01 T03510235  RH  051%=      5-min Rain = 0
KMD1 202030Z 20007KT 35/23 A2982 RMK A01 T03520234  RH  050%=      5-min Rain = 0
KMD1 202031Z 17007KT 35/24 A2982 RMK A01 T03510243  RH  054%=      5-min Rain = 0
KMD1 202032Z 17010KT 35/24 A2982 RMK A01 T03500240  RH  053%=      5-min Rain = 0
KMD1 202033Z 18009KT 35/24 A2982 RMK A01 T03500238  RH  053%=      5-min Rain = 0
KMD1 202034Z 19012KT 35/23 A2982 RMK A01 T03490232  RH  051%=      5-min Rain = 0
KMD1 202035Z 19010KT 35/22 A2982 RMK A01 T03500222  RH  048%=      5-min Rain = 0
KMD1 202036Z 19008KT 35/22 A2982 RMK A01 T03500221  RH  047%=      5-min Rain = 0
KMD1 202037Z 20010G15KT 35/23 A2982 RMK A01 T03500227  RH  049%=      5-min Rain = 0
KMD1 202038Z 19010KT 35/23 A2982 RMK A01 T03510225  RH  048%=      5-min Rain = 0
KMD1 202039Z 20008KT 35/23 A2982 RMK A01 T03510226  RH  048%=      5-min Rain = 0
KMD1 202040Z 19006KT 35/23 A2982 RMK A01 T03510230  RH  050%=      5-min Rain = 0
KMD1 202041Z 18007KT 35/23 A2982 RMK A01 T03510228  RH  049%=      5-min Rain = 0
KMD1 202042Z 18006KT 35/23 A2982 RMK A01 T03520226  RH  048%=      5-min Rain = 0
KMD1 202043Z 19008KT 35/23 A2982 RMK A01 T03520232  RH  050%=      5-min Rain = 0
KMD1 202044Z 20010KT 35/24 A2982 RMK A01 T03520237  RH  052%=      5-min Rain = 0
KMD1 202045Z 21012KT 35/23 A2982 RMK A01 T03520233  RH  050%=      5-min Rain = 0
KMD1 202046Z 21010KT 35/23 A2982 RMK A01 T03510225  RH  048%=      5-min Rain = 0
KMD1 202047Z 21009KT 35/23 A2981 RMK A01 T03500227  RH  049%=      5-min Rain = 0
KMD1 202048Z 20010KT 35/23 A2981 RMK A01 T03500231  RH  050%=      5-min Rain = 0
KMD1 202049Z 21011KT 35/23 A2981 RMK A01 T03510226  RH  049%=      5-min Rain = 0
KMD1 202050Z 21008KT 35/23 A2981 RMK A01 T03500228  RH  049%=      5-min Rain = 0
KMD1 202051Z 20008KT 35/23 A2981 RMK A01 T03500229  RH  049%=      5-min Rain = 0
KMD1 202052Z 20008KT 35/24 A2981 RMK A01 T03500238  RH  052%=      5-min Rain = 0
KMD1 202053Z 20008KT 35/23 A2981 RMK A01 T03490229  RH  050%=      5-min Rain = 0
KMD1 202054Z 18008KT 35/23 A2981 RMK A01 T03490229  RH  050%=      5-min Rain = 0
KMD1 202055Z 17010KT 35/23 A2981 RMK A01 T03500233  RH  051%=      5-min Rain = 0
KMD1 202056Z 17011KT 35/23 A2981 RMK A01 T03500234  RH  051%=      5-min Rain = 0
KMD1 202057Z 17010KT 35/24 A2981 RMK A01 T03500240  RH  053%=      5-min Rain = 0
KMD1 202058Z 18009KT 35/23 A2981 RMK A01 T03480234  RH  052%=      5-min Rain = 0
KMD1 202059Z 18007KT 35/23 A2981 RMK A01 T03480232  RH  051%=      5-min Rain = 0
KMD1 202100Z 18009KT 35/24 A2981 RMK A01 T03490236  RH  052%=      5-min Rain = 0
KMD1 202101Z 19013KT 35/23 A2981 RMK A01 T03490227  RH  049%=      5-min Rain = 0
KMD1 202102Z 19012KT 35/23 A2981 RMK A01 T03500226  RH  049%=      5-min Rain = 0
KMD1 202103Z 19012KT 35/23 A2981 RMK A01 T03490228  RH  050%=      5-min Rain = 0
KMD1 202104Z 19011KT 35/22 A2981 RMK A01 T03480222  RH  048%=      5-min Rain = 0
KMD1 202105Z 20009KT 35/22 A2981 RMK A01 T03480218  RH  047%=      5-min Rain = 0
KMD1 202106Z 20009KT 35/22 A2981 RMK A01 T03490222  RH  048%=      5-min Rain = 0
KMD1 202107Z 20009KT 35/22 A2981 RMK A01 T03500223  RH  048%=      5-min Rain = 0
KMD1 202108Z 21008G13KT 35/23 A2981 RMK A01 T03510230  RH  050%=      5-min Rain = 0
KMD1 202109Z 21010KT 35/22 A2981 RMK A01 T03510220  RH  047%=      5-min Rain = 0
KMD1 202110Z 20010KT 35/22 A2981 RMK A01 T03520217  RH  046%=      5-min Rain = 0
KMD1 202111Z 20010KT 35/22 A2981 RMK A01 T03520218  RH  046%=      5-min Rain = 0
KMD1 202112Z 21007G12KT 35/23 A2981 RMK A01 T03520226  RH  048%=      5-min Rain = 0
KMD1 202113Z 20008KT 35/23 A298 RMK A01 T03510232  RH  050%=      5-min Rain = 0
KMD1 202114Z 20009KT 35/23 A298 RMK A01 T03510228  RH  049%=      5-min Rain = 0
KMD1 202115Z 17010KT 35/23 A298 RMK A01 T03510230  RH  050%=      5-min Rain = 0
KMD1 202116Z 19011KT 35/23 A298 RMK A01 T03500232  RH  050%=      5-min Rain = 0
KMD1 202117Z 20011KT 35/22 A298 RMK A01 T03500223  RH  048%=      5-min Rain = 0
KMD1 202118Z 22012KT 35/23 A298 RMK A01 T03500225  RH  049%=      5-min Rain = 0
KMD1 202119Z 22009KT 35/22 A298 RMK A01 T03510223  RH  047%=      5-min Rain = 0
KMD1 202120Z 22009KT 35/23 A298 RMK A01 T03520225  RH  048%=      5-min Rain = 0
KMD1 202121Z 21009KT 35/23 A298 RMK A01 T03530226  RH  048%=      5-min Rain = 0
KMD1 202122Z 21008KT 35/23 A298 RMK A01 T03530226  RH  048%=      5-min Rain = 0
KMD1 202123Z 21008KT 35/22 A298 RMK A01 T03530224  RH  047%=      5-min Rain = 0
KMD1 202124Z 21008KT 35/23 A298 RMK A01 T03530225  RH  048%=      5-min Rain = 0
KMD1 202125Z 22009KT 35/23 A298 RMK A01 T03530229  RH  049%=      5-min Rain = 0
KMD1 202126Z 22009KT 35/23 A298 RMK A01 T03530226  RH  048%=      5-min Rain = 0
KMD1 202127Z 20007KT 35/23 A298 RMK A01 T03540233  RH  050%=      5-min Rain = 0
KMD1 202128Z 19008KT 35/23 A298 RMK A01 T03540231  RH  049%=      5-min Rain = 0
KMD1 202129Z 18009G14KT 36/23 A298 RMK A01 T03550232  RH  049%=      5-min Rain = 0
KMD1 202130Z 18010KT 35/23 A298 RMK A01 T03540230  RH  049%=      5-min Rain = 0
KMD1 202131Z 17008KT 35/23 A298 RMK A01 T03520231  RH  050%=      5-min Rain = 0
KMD1 202132Z 18009KT 35/23 A298 RMK A01 T03510234  RH  051%=      5-min Rain = 0
KMD1 202133Z 18009KT 35/23 A298 RMK A01 T03510229  RH  050%=      5-min Rain = 0
KMD1 202134Z 18008KT 35/23 A298 RMK A01 T03500228  RH  049%=      5-min Rain = 0
KMD1 202135Z 18008KT 35/23 A298 RMK A01 T03500232  RH  050%=      5-min Rain = 0
KMD1 202136Z 18008KT 35/23 A298 RMK A01 T03500229  RH  049%=      5-min Rain = 0
KMD1 202137Z 19009KT 35/23 A298 RMK A01 T03510229  RH  049%=      5-min Rain = 0
KMD1 202138Z 18008KT 35/23 A298 RMK A01 T03510225  RH  048%=      5-min Rain = 0
KMD1 202139Z 18007KT 35/23 A298 RMK A01 T03510231  RH  050%=      5-min Rain = 0
KMD1 202140Z 19007KT 35/23 A298 RMK A01 T03520231  RH  050%=      5-min Rain = 0
KMD1 202141Z 18007KT 35/23 A298 RMK A01 T03530232  RH  050%=      5-min Rain = 0
KMD1 202142Z 18011KT 35/23 A2979 RMK A01 T03540234  RH  050%=      5-min Rain = 0
KMD1 202143Z 19009KT 35/23 A2979 RMK A01 T03530234  RH  050%=      5-min Rain = 0
KMD1 202144Z 18011KT 35/23 A2979 RMK A01 T03520234  RH  051%=      5-min Rain = 0
KMD1 202145Z 18011KT 35/23 A2979 RMK A01 T03510225  RH  048%=      5-min Rain = 0
KMD1 202146Z 18011KT 35/23 A2979 RMK A01 T03500229  RH  049%=      5-min Rain = 0
KMD1 202147Z 18011KT 35/23 A2979 RMK A01 T03490228  RH  049%=      5-min Rain = 0
KMD1 202148Z 17011KT 35/23 A2979 RMK A01 T03490229  RH  050%=      5-min Rain = 0
KMD1 202149Z 18012KT 35/22 A2979 RMK A01 T03490224  RH  048%=      5-min Rain = 0
KMD1 202150Z 18011KT 35/22 A2979 RMK A01 T03490220  RH  047%=      5-min Rain = 0
KMD1 202151Z 18008KT 35/22 A2979 RMK A01 T03480223  RH  048%=      5-min Rain = 0
KMD1 202152Z 18008KT 35/23 A2979 RMK A01 T03490226  RH  049%=      5-min Rain = 0
KMD1 202153Z 18009KT 35/22 A2979 RMK A01 T03500216  RH  046%=      5-min Rain = 0
KMD1 202154Z 16009KT 35/23 A2979 RMK A01 T03510225  RH  048%=      5-min Rain = 0
KMD1 202155Z 16010KT 35/22 A2979 RMK A01 T03510224  RH  048%=      5-min Rain = 0
KMD1 202156Z 17010KT 35/22 A2979 RMK A01 T03500219  RH  047%=      5-min Rain = 0
KMD1 202157Z 17009KT 35/22 A2979 RMK A01 T03500223  RH  048%=      5-min Rain = 0
KMD1 202158Z 18008KT 35/23 A2979 RMK A01 T03490225  RH  049%=      5-min Rain = 0
KMD1 202159Z 19007KT 35/23 A2979 RMK A01 T03490234  RH  051%=      5-min Rain = 0
KMD1 202200Z 19008KT 35/23 A2979 RMK A01 T03480225  RH  049%=      5-min Rain = 0
KMD1 202201Z 20009KT 35/22 A2979 RMK A01 T03500224  RH  048%=      5-min Rain = 0
KMD1 202202Z 20007KT 35/22 A2979 RMK A01 T03510221  RH  047%=      5-min Rain = 0
KMD1 202203Z 19009KT 35/22 A2979 RMK A01 T03510224  RH  048%=      5-min Rain = 0
KMD1 202204Z 19007KT 35/22 A2979 RMK A01 T03520220  RH  047%=      5-min Rain = 0
KMD1 202205Z 19007KT 35/23 A2979 RMK A01 T03530234  RH  050%=      5-min Rain = 0
KMD1 202206Z 18006KT 35/24 A2979 RMK A01 T03530235  RH  051%=      5-min Rain = 0
KMD1 202207Z 17010KT 35/23 A2979 RMK A01 T03530228  RH  048%=      5-min Rain = 0
KMD1 202208Z 18009KT 35/22 A2979 RMK A01 T03540223  RH  047%=      5-min Rain = 0
KMD1 202209Z 18009KT 35/22 A2979 RMK A01 T03530222  RH  047%=      5-min Rain = 0
KMD1 202210Z 19009G14KT 35/22 A2979 RMK A01 T03530219  RH  046%=      5-min Rain = 0
KMD1 202211Z 18010KT 35/22 A2979 RMK A01 T03540219  RH  046%=      5-min Rain = 0
KMD1 202212Z 17010KT 35/22 A2979 RMK A01 T03530224  RH  047%=      5-min Rain = 0
KMD1 202213Z 17008KT 35/22 A2979 RMK A01 T03520222  RH  047%=      5-min Rain = 0
KMD1 202214Z 19008KT 35/22 A2979 RMK A01 T03500224  RH  048%=      5-min Rain = 0
KMD1 202215Z 18010KT 35/22 A2979 RMK A01 T03500219  RH  047%=      5-min Rain = 0
KMD1 202216Z 18007KT 35/22 A2979 RMK A01 T03500219  RH  047%=      5-min Rain = 0
KMD1 202217Z 18008KT 35/22 A2979 RMK A01 T03510223  RH  048%=      5-min Rain = 0
KMD1 202218Z 18008KT 35/22 A2979 RMK A01 T03510221  RH  047%=      5-min Rain = 0
KMD1 202219Z 19007KT 35/23 A2979 RMK A01 T03510227  RH  049%=      5-min Rain = 0
KMD1 202220Z 20007KT 35/22 A2979 RMK A01 T03510222  RH  047%=      5-min Rain = 0
KMD1 202221Z 19008KT 35/21 A2979 RMK A01 T03520212  RH  044%=      5-min Rain = 0
KMD1 202222Z 18007KT 35/22 A2979 RMK A01 T03530217  RH  045%=      5-min Rain = 0
KMD1 202223Z 18006KT 35/23 A2979 RMK A01 T03530227  RH  048%=      5-min Rain = 0
KMD1 202224Z 17007KT 35/22 A2979 RMK A01 T03530223  RH  047%=      5-min Rain = 0
KMD1 202225Z 18006KT 35/23 A2979 RMK A01 T03530230  RH  049%=      5-min Rain = 0
KMD1 202226Z 19007KT 35/23 A2979 RMK A01 T03520225  RH  048%=      5-min Rain = 0
KMD1 202227Z 18008KT 35/22 A2979 RMK A01 T03520223  RH  047%=      5-min Rain = 0
KMD1 202228Z 17009KT 35/22 A2979 RMK A01 T03520216  RH  046%=      5-min Rain = 0
KMD1 202229Z 17007KT 35/22 A2979 RMK A01 T03510217  RH  046%=      5-min Rain = 0
KMD1 202230Z 18008KT 35/22 A2979 RMK A01 T03490218  RH  047%=      5-min Rain = 0
KMD1 202231Z 18008KT 35/21 A2979 RMK A01 T03490209  RH  044%=      5-min Rain = 0
KMD1 202232Z 17011KT 35/21 A2979 RMK A01 T03500211  RH  044%=      5-min Rain = 0
KMD1 202233Z 18010KT 35/21 A2979 RMK A01 T03510207  RH  043%=      5-min Rain = 0
KMD1 202234Z 18007KT 35/21 A2979 RMK A01 T03510210  RH  044%=      5-min Rain = 0
KMD1 202235Z 18007KT 35/21 A2979 RMK A01 T03510213  RH  045%=      5-min Rain = 0
KMD1 202236Z 19008KT 35/21 A2979 RMK A01 T03510213  RH  045%=      5-min Rain = 0
KMD1 202237Z 19009KT 35/20 A2979 RMK A01 T03520204  RH  042%=      5-min Rain = 0
KMD1 202238Z 19010KT 35/21 A2979 RMK A01 T03540206  RH  042%=      5-min Rain = 0
KMD1 202239Z 19010KT 35/20 A2979 RMK A01 T03540203  RH  041%=      5-min Rain = 0
KMD1 202240Z 19009KT 35/20 A2979 RMK A01 T03540201  RH  041%=      5-min Rain = 0
KMD1 202241Z 18008KT 35/21 A2979 RMK A01 T03540208  RH  043%=      5-min Rain = 0
KMD1 202242Z 18011KT 35/20 A2979 RMK A01 T03540203  RH  041%=      5-min Rain = 0
KMD1 202243Z 18009KT 35/20 A2979 RMK A01 T03520203  RH  042%=      5-min Rain = 0
KMD1 202244Z 18007KT 35/20 A2979 RMK A01 T03520203  RH  042%=      5-min Rain = 0
KMD1 202245Z 18007KT 35/21 A2979 RMK A01 T03520212  RH  044%=      5-min Rain = 0
KMD1 202246Z 18006KT 35/20 A2979 RMK A01 T03530204  RH  042%=      5-min Rain = 0
KMD1 202247Z 18009KT 35/21 A2979 RMK A01 T03530211  RH  044%=      5-min Rain = 0
KMD1 202248Z 18007KT 35/21 A2979 RMK A01 T03530214  RH  044%=      5-min Rain = 0
KMD1 202249Z 21009KT 35/21 A2979 RMK A01 T03530207  RH  043%=      5-min Rain = 0
KMD1 202250Z 19009KT 35/20 A2979 RMK A01 T03530203  RH  042%=      5-min Rain = 0
KMD1 202251Z 18008KT 35/20 A2979 RMK A01 T03540202  RH  041%=      5-min Rain = 0
KMD1 202252Z 18008KT 35/21 A2979 RMK A01 T03540209  RH  043%=      5-min Rain = 0
KMD1 202253Z 19008KT 35/20 A2979 RMK A01 T03530203  RH  042%=      5-min Rain = 0
KMD1 202254Z 18008KT 35/20 A2979 RMK A01 T03540202  RH  041%=      5-min Rain = 0
KMD1 202255Z 18009KT 35/21 A2979 RMK A01 T03540206  RH  042%=      5-min Rain = 0
KMD1 202256Z 18008KT 35/21 A2979 RMK A01 T03540208  RH  043%=      5-min Rain = 0
KMD1 202257Z 19008KT 35/21 A2979 RMK A01 T03530207  RH  042%=      5-min Rain = 0
KMD1 202258Z 19009KT 35/20 A2979 RMK A01 T03530200  RH  041%=      5-min Rain = 0
KMD1 202259Z 18008KT 35/21 A2979 RMK A01 T03540208  RH  043%=      5-min Rain = 0
KMD1 202300Z 19008KT 35/22 A2979 RMK A01 T03530215  RH  045%=      5-min Rain = 0
KMD1 202301Z 18009KT 35/21 A2979 RMK A01 T03510212  RH  045%=      5-min Rain = 0
KMD1 202302Z 18010KT 35/20 A2979 RMK A01 T03500202  RH  042%=      5-min Rain = 0
KMD1 202303Z 18010KT 35/20 A2979 RMK A01 T03520204  RH  042%=      5-min Rain = 0
KMD1 202304Z 18010KT 35/21 A2979 RMK A01 T03510205  RH  043%=      5-min Rain = 0
KMD1 202305Z 19011KT 35/20 A2979 RMK A01 T03510198  RH  041%=      5-min Rain = 0
KMD1 202306Z 19011KT 35/20 A2979 RMK A01 T03520195  RH  040%=      5-min Rain = 0
KMD1 202307Z 18010KT 35/20 A2979 RMK A01 T03530196  RH  040%=      5-min Rain = 0
KMD1 202308Z 18009KT 35/20 A2979 RMK A01 T03530201  RH  041%=      5-min Rain = 0
KMD1 202309Z 18009KT 35/20 A2979 RMK A01 T03520198  RH  041%=      5-min Rain = 0
KMD1 202310Z 19008KT 35/20 A2978 RMK A01 T03520200  RH  041%=      5-min Rain = 0
KMD1 202311Z 19007KT 35/21 A2978 RMK A01 T03510206  RH  043%=      5-min Rain = 0
KMD1 202312Z 19007KT 35/20 A2978 RMK A01 T03490202  RH  042%=      5-min Rain = 0
KMD1 202313Z 18007KT 35/21 A2978 RMK A01 T03500207  RH  043%=      5-min Rain = 0
KMD1 202314Z 17008KT 35/21 A2978 RMK A01 T03500209  RH  044%=      5-min Rain = 0
KMD1 202315Z 17009KT 35/20 A2978 RMK A01 T03500202  RH  042%=      5-min Rain = 0
KMD1 202316Z 17008KT 35/21 A2978 RMK A01 T03510206  RH  043%=      5-min Rain = 0
KMD1 202317Z 17010KT 35/21 A2978 RMK A01 T03490207  RH  044%=      5-min Rain = 0
KMD1 202318Z 17009KT 35/21 A2978 RMK A01 T03470206  RH  044%=      5-min Rain = 0
KMD1 202319Z 18008KT 35/21 A2978 RMK A01 T03470205  RH  044%=      5-min Rain = 0
KMD1 202320Z 18006KT 35/21 A2978 RMK A01 T03470206  RH  044%=      5-min Rain = 0
KMD1 202321Z 18009KT 35/20 A2978 RMK A01 T03480201  RH  042%=      5-min Rain = 0
KMD1 202322Z 18009KT 35/20 A2978 RMK A01 T03500195  RH  040%=      5-min Rain = 0
KMD1 202323Z 18007KT 35/21 A2978 RMK A01 T03510207  RH  043%=      5-min Rain = 0
KMD1 202324Z 18006KT 35/21 A2978 RMK A01 T03490205  RH  043%=      5-min Rain = 0
KMD1 202325Z 19008KT 35/21 A2978 RMK A01 T03500209  RH  044%=      5-min Rain = 0
KMD1 202326Z 19009KT 35/20 A2978 RMK A01 T03500198  RH  041%=      5-min Rain = 0
KMD1 202327Z 19007KT 35/20 A2978 RMK A01 T03520196  RH  040%=      5-min Rain = 0
KMD1 202328Z 19007KT 35/21 A2978 RMK A01 T03530207  RH  043%=      5-min Rain = 0
KMD1 202329Z 20007KT 35/21 A2978 RMK A01 T03530205  RH  042%=      5-min Rain = 0
KMD1 202330Z 19009KT 35/20 A2978 RMK A01 T03530199  RH  041%=      5-min Rain = 0
KMD1 202331Z 19010KT 35/20 A2978 RMK A01 T03530199  RH  041%=      5-min Rain = 0
KMD1 202332Z 19009KT 35/20 A2978 RMK A01 T03530199  RH  041%=      5-min Rain = 0
KMD1 202333Z 19011KT 35/20 A2978 RMK A01 T03520198  RH  040%=      5-min Rain = 0
KMD1 202334Z 19008KT 35/20 A2978 RMK A01 T03530198  RH  040%=      5-min Rain = 0
KMD1 202335Z 19009KT 35/21 A2978 RMK A01 T03520205  RH  042%=      5-min Rain = 0
KMD1 202336Z 20008KT 35/20 A2978 RMK A01 T03510200  RH  041%=      5-min Rain = 0
KMD1 202337Z 20009KT 35/20 A2978 RMK A01 T03500202  RH  042%=      5-min Rain = 0
KMD1 202338Z 19008KT 35/20 A2978 RMK A01 T03510200  RH  041%=      5-min Rain = 0
KMD1 202339Z 19008KT 35/20 A2978 RMK A01 T03520200  RH  041%=      5-min Rain = 0
KMD1 202340Z 18006KT 35/21 A2978 RMK A01 T03520207  RH  043%=      5-min Rain = 0
KMD1 202341Z 17007KT 35/22 A2978 RMK A01 T03510216  RH  046%=      5-min Rain = 0
KMD1 202342Z 17008KT 35/21 A2978 RMK A01 T03490209  RH  044%=      5-min Rain = 0
KMD1 202343Z 18007KT 35/21 A2978 RMK A01 T03490211  RH  045%=      5-min Rain = 0
KMD1 202344Z 18009KT 35/22 A2978 RMK A01 T03480215  RH  046%=      5-min Rain = 0
KMD1 202345Z 16008KT 35/21 A2978 RMK A01 T03470207  RH  044%=      5-min Rain = 0
KMD1 202346Z 16008KT 35/22 A2978 RMK A01 T03460219  RH  047%=      5-min Rain = 0
KMD1 202347Z 16010KT 35/22 A2978 RMK A01 T03450215  RH  047%=      5-min Rain = 0
KMD1 202348Z 17008KT 34/21 A2978 RMK A01 T03430209  RH  046%=      5-min Rain = 0
KMD1 202349Z 17007KT 34/21 A2978 RMK A01 T03430213  RH  047%=      5-min Rain = 0
KMD1 202350Z 16006KT 34/22 A2978 RMK A01 T03430216  RH  048%=      5-min Rain = 0
KMD1 202351Z 16008KT 34/22 A2978 RMK A01 T03420215  RH  047%=      5-min Rain = 0
KMD1 202352Z 17008KT 34/21 A2978 RMK A01 T03420214  RH  047%=      5-min Rain = 0
KMD1 202353Z 16007KT 34/21 A2978 RMK A01 T03430211  RH  046%=      5-min Rain = 0
KMD1 202354Z 16007KT 35/22 A2978 RMK A01 T03450215  RH  047%=      5-min Rain = 0
KMD1 202355Z 15005KT 35/23 A2978 RMK A01 T03450227  RH  050%=      5-min Rain = 0
KMD1 202356Z 17008KT 34/22 A2978 RMK A01 T03440223  RH  050%=      5-min Rain = 0
KMD1 202357Z 16007KT 34/23 A2978 RMK A01 T03430226  RH  051%=      5-min Rain = 0
KMD1 202358Z 16009KT 34/23 A2978 RMK A01 T03430225  RH  051%=      5-min Rain = 0
KMD1 202359Z 17010KT 34/22 A2978 RMK A01 T03420219  RH  049%=      5-min Rain = 0
KMD1 210000Z 16007KT 34/23 A2978 RMK A01 T03420225  RH  051%=      5-min Rain = 0
KMD1 210001Z 16008KT 34/23 A2978 RMK A01 T03420227  RH  051%=      5-min Rain = 0
KMD1 210002Z 15007KT 34/23 A2978 RMK A01 T03410227  RH  051%=      5-min Rain = 0
KMD1 210003Z 15009KT 34/23 A2978 RMK A01 T03410228  RH  052%=      5-min Rain = 0
KMD1 210004Z 16009KT 34/23 A2978 RMK A01 T03390226  RH  052%=      5-min Rain = 0
KMD1 210005Z 16012KT 34/22 A2978 RMK A01 T03380221  RH  050%=      5-min Rain = 0
KMD1 210006Z 16009KT 34/22 A2978 RMK A01 T03380222  RH  051%=      5-min Rain = 0
KMD1 210007Z 17009KT 34/23 A2978 RMK A01 T03380225  RH  052%=      5-min Rain = 0
KMD1 210008Z 15008KT 34/23 A2978 RMK A01 T03370226  RH  052%=      5-min Rain = 0
KMD1 210009Z 15009KT 34/22 A2978 RMK A01 T03360221  RH  051%=      5-min Rain = 0
KMD1 210010Z 15011KT 34/22 A2978 RMK A01 T03380219  RH  050%=      5-min Rain = 0
KMD1 210011Z 15010KT 34/22 A2978 RMK A01 T03390218  RH  049%=      5-min Rain = 0
KMD1 210012Z 15010KT 34/22 A2978 RMK A01 T03390220  RH  050%=      5-min Rain = 0
KMD1 210013Z 15011KT 34/22 A2978 RMK A01 T03390215  RH  048%=      5-min Rain = 0
KMD1 210014Z 15010KT 34/22 A2978 RMK A01 T03390217  RH  049%=      5-min Rain = 0
KMD1 210015Z 14010KT 34/22 A2978 RMK A01 T03390221  RH  050%=      5-min Rain = 0
KMD1 210016Z 15011KT 34/22 A2978 RMK A01 T03370218  RH  050%=      5-min Rain = 0
KMD1 210017Z 15009KT 34/22 A2978 RMK A01 T03360220  RH  051%=      5-min Rain = 0
KMD1 210018Z 15009KT 34/22 A2978 RMK A01 T03360218  RH  050%=      5-min Rain = 0
KMD1 210019Z 15008KT 34/22 A2978 RMK A01 T03360222  RH  051%=      5-min Rain = 0
KMD1 210020Z 15009KT 34/22 A2978 RMK A01 T03360221  RH  051%=      5-min Rain = 0
KMD1 210021Z 15008KT 34/22 A2978 RMK A01 T03360220  RH  051%=      5-min Rain = 0
KMD1 210022Z 16007KT 34/22 A2978 RMK A01 T03360219  RH  050%=      5-min Rain = 0
KMD1 210023Z 16008KT 34/22 A2978 RMK A01 T03370224  RH  052%=      5-min Rain = 0
KMD1 210024Z 16011KT 34/22 A2978 RMK A01 T03360220  RH  051%=      5-min Rain = 0
KMD1 210025Z 15010KT 34/22 A2978 RMK A01 T03350221  RH  051%=      5-min Rain = 0
KMD1 210026Z 15011KT 34/22 A2979 RMK A01 T03350220  RH  051%=      5-min Rain = 0
KMD1 210027Z 15011KT 34/22 A2979 RMK A01 T03350215  RH  050%=      5-min Rain = 0
KMD1 210028Z 16012KT 34/22 A2979 RMK A01 T03360217  RH  050%=      5-min Rain = 0
KMD1 210029Z 16010KT 34/22 A2979 RMK A01 T03370217  RH  050%=      5-min Rain = 0
KMD1 210030Z 15010KT 34/22 A2979 RMK A01 T03360219  RH  050%=      5-min Rain = 0
KMD1 210031Z 16009KT 34/22 A2979 RMK A01 T03360220  RH  051%=      5-min Rain = 0
KMD1 210032Z 15008KT 33/22 A2979 RMK A01 T03340221  RH  051%=      5-min Rain = 0
KMD1 210033Z 16008KT 33/22 A2979 RMK A01 T03340220  RH  051%=      5-min Rain = 0
KMD1 210034Z 16010KT 33/22 A2979 RMK A01 T03340222  RH  052%=      5-min Rain = 0
KMD1 210035Z 15011KT 33/22 A2979 RMK A01 T03330217  RH  051%=      5-min Rain = 0
KMD1 210036Z 15010KT 33/22 A2979 RMK A01 T03340217  RH  050%=      5-min Rain = 0
KMD1 210037Z 16010KT 33/22 A2979 RMK A01 T03340217  RH  050%=      5-min Rain = 0
KMD1 210038Z 16009KT 33/22 A2979 RMK A01 T03340224  RH  053%=      5-min Rain = 0
KMD1 210039Z 16009KT 33/22 A2979 RMK A01 T03310222  RH  053%=      5-min Rain = 0
KMD1 210040Z 16009KT 33/22 A2979 RMK A01 T03300219  RH  052%=      5-min Rain = 0
KMD1 210041Z 16012KT 33/22 A2979 RMK A01 T03310218  RH  052%=      5-min Rain = 0
KMD1 210042Z 15009KT 33/22 A2979 RMK A01 T03320217  RH  051%=      5-min Rain = 0
KMD1 210043Z 15009KT 33/22 A2979 RMK A01 T03320222  RH  053%=      5-min Rain = 0
KMD1 210044Z 16008KT 33/22 A2979 RMK A01 T03300223  RH  053%=      5-min Rain = 0
KMD1 210045Z 15008KT 33/22 A2979 RMK A01 T03290221  RH  053%=      5-min Rain = 0
KMD1 210046Z 16007KT 33/22 A2979 RMK A01 T03280222  RH  054%=      5-min Rain = 0
KMD1 210047Z 16007KT 33/23 A2979 RMK A01 T03280225  RH  055%=      5-min Rain = 0
KMD1 210048Z 17011KT 33/22 A2979 RMK A01 T03270222  RH  054%=      5-min Rain = 0
KMD1 210049Z 16010KT 33/22 A2979 RMK A01 T03270216  RH  052%=      5-min Rain = 0
KMD1 210050Z 16011G16KT 33/22 A2979 RMK A01 T03280216  RH  052%=      5-min Rain = 0
KMD1 210051Z 16012KT 33/21 A2979 RMK A01 T03300213  RH  050%=      5-min Rain = 0
KMD1 210052Z 16011KT 33/21 A2979 RMK A01 T03310214  RH  050%=      5-min Rain = 0
KMD1 210053Z 16011G17KT 33/21 A2979 RMK A01 T03310214  RH  050%=      5-min Rain = 0
KMD1 210054Z 16015KT 33/21 A2979 RMK A01 T03320210  RH  049%=      5-min Rain = 0
KMD1 210055Z 16013KT 33/21 A2979 RMK A01 T03320210  RH  049%=      5-min Rain = 0
KMD1 210056Z 15012KT 33/21 A2979 RMK A01 T03320212  RH  049%=      5-min Rain = 0
KMD1 210057Z 16009G14KT 33/21 A2979 RMK A01 T03320212  RH  049%=      5-min Rain = 0
KMD1 210058Z 17010KT 33/21 A2979 RMK A01 T03310213  RH  050%=      5-min Rain = 0
KMD1 210059Z 16010KT 33/21 A2979 RMK A01 T03300212  RH  050%=      5-min Rain = 0
KMD1 210100Z 16011KT 33/21 A2979 RMK A01 T03290210  RH  050%=      5-min Rain = 0
KMD1 210101Z 16011KT 33/21 A2979 RMK A01 T03280210  RH  050%=      5-min Rain = 0
KMD1 210102Z 16010KT 33/21 A2979 RMK A01 T03280211  RH  050%=      5-min Rain = 0
KMD1 210103Z 17008KT 33/21 A2979 RMK A01 T03270212  RH  051%=      5-min Rain = 0
KMD1 210104Z 16009KT 33/21 A2979 RMK A01 T03260211  RH  051%=      5-min Rain = 0
KMD1 210105Z 16010KT 33/21 A2979 RMK A01 T03270208  RH  050%=      5-min Rain = 0
KMD1 210106Z 16012KT 33/20 A2979 RMK A01 T03270204  RH  048%=      5-min Rain = 0
KMD1 210107Z 17010KT 33/21 A2979 RMK A01 T03290206  RH  049%=      5-min Rain = 0
KMD1 210108Z 16010KT 33/21 A2979 RMK A01 T03290208  RH  049%=      5-min Rain = 0
KMD1 210109Z 16012KT 33/20 A2979 RMK A01 T03280203  RH  048%=      5-min Rain = 0
KMD1 210110Z 16009KT 33/20 A2979 RMK A01 T03280204  RH  048%=      5-min Rain = 0
KMD1 210111Z 16010KT 33/21 A2979 RMK A01 T03280206  RH  049%=      5-min Rain = 0
KMD1 210112Z 17009G14KT 33/21 A2979 RMK A01 T03270208  RH  050%=      5-min Rain = 0
KMD1 210113Z 17011KT 33/20 A2979 RMK A01 T03260204  RH  049%=      5-min Rain = 0
KMD1 210114Z 15010KT 33/20 A2979 RMK A01 T03260203  RH  049%=      5-min Rain = 0
KMD1 210115Z 16010KT 33/20 A2979 RMK A01 T03260204  RH  049%=      5-min Rain = 0
KMD1 210116Z 16012KT 33/20 A2979 RMK A01 T03260200  RH  048%=      5-min Rain = 0
KMD1 210117Z 16010KT 33/20 A2979 RMK A01 T03260203  RH  048%=      5-min Rain = 0
KMD1 210118Z 16009KT 33/20 A2979 RMK A01 T03260200  RH  047%=      5-min Rain = 0
KMD1 210119Z 16011KT 33/20 A2979 RMK A01 T03270202  RH  048%=      5-min Rain = 0
KMD1 210120Z 17011KT 33/20 A2979 RMK A01 T03260204  RH  048%=      5-min Rain = 0
KMD1 210121Z 16011KT 33/20 A2979 RMK A01 T03250203  RH  048%=      5-min Rain = 0
KMD1 210122Z 16010KT 32/20 A2979 RMK A01 T03240203  RH  049%=      5-min Rain = 0
KMD1 210123Z 17010KT 32/20 A2979 RMK A01 T03230202  RH  049%=      5-min Rain = 0
KMD1 210124Z 16009KT 32/20 A2979 RMK A01 T03230201  RH  049%=      5-min Rain = 0
KMD1 210125Z 16011KT 32/20 A2979 RMK A01 T03230203  RH  049%=      5-min Rain = 0
KMD1 210126Z 16011KT 32/20 A2979 RMK A01 T03220200  RH  049%=      5-min Rain = 0
KMD1 210127Z 16010KT 32/20 A2979 RMK A01 T03220198  RH  048%=      5-min Rain = 0
KMD1 210128Z 16011KT 32/20 A2979 RMK A01 T03230199  RH  048%=      5-min Rain = 0
KMD1 210129Z 16009KT 32/20 A2979 RMK A01 T03230200  RH  048%=      5-min Rain = 0
KMD1 210130Z 16010KT 32/20 A2979 RMK A01 T03220201  RH  049%=      5-min Rain = 0
KMD1 210131Z 16009KT 32/20 A2979 RMK A01 T03210197  RH  048%=      5-min Rain = 0
KMD1 210132Z 16009KT 32/20 A2979 RMK A01 T03210200  RH  049%=      5-min Rain = 0
KMD1 210133Z 17008KT 32/20 A2979 RMK A01 T03200198  RH  048%=      5-min Rain = 0
KMD1 210134Z 16009KT 32/20 A2979 RMK A01 T03200199  RH  049%=      5-min Rain = 0
KMD1 210135Z 16010KT 32/20 A2979 RMK A01 T03200200  RH  049%=      5-min Rain = 0
KMD1 210136Z 16011KT 32/20 A2979 RMK A01 T03190198  RH  049%=      5-min Rain = 0
KMD1 210137Z 17010KT 32/20 A298 RMK A01 T03200198  RH  049%=      5-min Rain = 0
KMD1 210138Z 17011KT 32/20 A2979 RMK A01 T03200197  RH  048%=      5-min Rain = 0
KMD1 210139Z 16010KT 32/20 A2979 RMK A01 T03210198  RH  048%=      5-min Rain = 0
KMD1 210140Z 16008KT 32/20 A298 RMK A01 T03210200  RH  049%=      5-min Rain = 0
KMD1 210141Z 16011KT 32/20 A2979 RMK A01 T03200201  RH  049%=      5-min Rain = 0
KMD1 210142Z 16011KT 32/20 A2979 RMK A01 T03200201  RH  049%=      5-min Rain = 0
KMD1 210143Z 16009KT 32/20 A298 RMK A01 T03200203  RH  050%=      5-min Rain = 0
KMD1 210144Z 16009KT 32/20 A298 RMK A01 T03190203  RH  050%=      5-min Rain = 0
KMD1 210145Z 16009KT 32/20 A298 RMK A01 T03190204  RH  051%=      5-min Rain = 0
KMD1 210146Z 16010KT 32/20 A298 RMK A01 T03180204  RH  051%=      5-min Rain = 0
KMD1 210147Z 16008KT 32/21 A298 RMK A01 T03180205  RH  051%=      5-min Rain = 0
KMD1 210148Z 16008KT 32/21 A298 RMK A01 T03170206  RH  052%=      5-min Rain = 0
KMD1 210149Z 16009KT 32/21 A298 RMK A01 T03160209  RH  053%=      5-min Rain = 0
KMD1 210150Z 15007KT 32/21 A298 RMK A01 T03150207  RH  053%=      5-min Rain = 0
KMD1 210151Z 15007KT 31/21 A298 RMK A01 T03140208  RH  053%=      5-min Rain = 0
KMD1 210152Z 15008KT 31/21 A298 RMK A01 T03130211  RH  055%=      5-min Rain = 0
KMD1 210153Z 16007KT 31/21 A298 RMK A01 T03120211  RH  055%=      5-min Rain = 0
KMD1 210154Z 16008KT 31/21 A298 RMK A01 T03110212  RH  056%=      5-min Rain = 0
KMD1 210155Z 16008KT 31/21 A298 RMK A01 T03110213  RH  056%=      5-min Rain = 0
KMD1 210156Z 15008KT 31/21 A298 RMK A01 T03100214  RH  057%=      5-min Rain = 0
KMD1 210157Z 16010KT 31/22 A298 RMK A01 T03090215  RH  057%=      5-min Rain = 0
KMD1 210158Z 16008KT 31/22 A298 RMK A01 T03090215  RH  057%=      5-min Rain = 0
KMD1 210159Z 15008KT 31/22 A298 RMK A01 T03100216  RH  057%=      5-min Rain = 0
KMD1 210200Z 15009KT 31/22 A298 RMK A01 T03100217  RH  058%=      5-min Rain = 0
KMD1 210201Z 16009KT 31/22 A298 RMK A01 T03100218  RH  058%=      5-min Rain = 0
KMD1 210202Z 15008KT 31/22 A298 RMK A01 T03100219  RH  058%=      5-min Rain = 0
KMD1 210203Z 16012KT 31/22 A298 RMK A01 T03100220  RH  059%=      5-min Rain = 0
KMD1 210204Z 17012KT 31/22 A298 RMK A01 T03100221  RH  059%=      5-min Rain = 0
KMD1 210205Z 16012KT 31/22 A298 RMK A01 T03110221  RH  059%=      5-min Rain = 0
KMD1 210206Z 16010KT 31/22 A298 RMK A01 T03110222  RH  059%=      5-min Rain = 0
KMD1 210207Z 16009KT 31/22 A298 RMK A01 T03110223  RH  059%=      5-min Rain = 0
KMD1 210208Z 16010KT 31/22 A298 RMK A01 T03110223  RH  060%=      5-min Rain = 0
KMD1 210209Z 16008KT 31/22 A298 RMK A01 T03100224  RH  060%=      5-min Rain = 0
KMD1 210210Z 16008G13KT 31/22 A298 RMK A01 T03090224  RH  060%=      5-min Rain = 0
KMD1 210211Z 15009KT 31/23 A298 RMK A01 T03080225  RH  061%=      5-min Rain = 0
KMD1 210212Z 16008KT 31/23 A298 RMK A01 T03080225  RH  061%=      5-min Rain = 0
KMD1 210213Z 17008KT 31/23 A2981 RMK A01 T03070225  RH  062%=      5-min Rain = 0
KMD1 210214Z 15007KT 31/23 A2981 RMK A01 T03070226  RH  062%=      5-min Rain = 0
KMD1 210215Z 16007KT 31/23 A2981 RMK A01 T03050226  RH  063%=      5-min Rain = 0
KMD1 210216Z 15006KT 30/23 A2981 RMK A01 T03040226  RH  063%=      5-min Rain = 0
KMD1 210217Z 16006KT 30/23 A2981 RMK A01 T03030226  RH  063%=      5-min Rain = 0
KMD1 210218Z 17009KT 30/23 A2981 RMK A01 T03030226  RH  063%=      5-min Rain = 0
KMD1 210219Z 16008KT 30/23 A2981 RMK A01 T03030226  RH  063%=      5-min Rain = 0
KMD1 210220Z 17009KT 30/23 A2981 RMK A01 T03030226  RH  063%=      5-min Rain = 0
KMD1 210221Z 16008KT 30/23 A2981 RMK A01 T03030226  RH  064%=      5-min Rain = 0
KMD1 210222Z 16011KT 30/23 A2981 RMK A01 T03030226  RH  064%=      5-min Rain = 0
KMD1 210223Z 16009KT 30/23 A2981 RMK A01 T03030226  RH  063%=      5-min Rain = 0
KMD1 210224Z 16008KT 30/23 A2981 RMK A01 T03040226  RH  063%=      5-min Rain = 0
KMD1 210225Z 17008KT 30/23 A2981 RMK A01 T03040228  RH  064%=      5-min Rain = 0
KMD1 210226Z 15010KT 30/23 A2981 RMK A01 T03030228  RH  064%=      5-min Rain = 0
KMD1 210227Z 16011KT 30/23 A2981 RMK A01 T03030227  RH  064%=      5-min Rain = 0
KMD1 210228Z 16010KT 30/23 A2981 RMK A01 T03020227  RH  064%=      5-min Rain = 0
KMD1 210229Z 16008KT 30/23 A2981 RMK A01 T03030227  RH  064%=      5-min Rain = 0
KMD1 210230Z 16010KT 30/23 A2981 RMK A01 T03040229  RH  064%=      5-min Rain = 0
KMD1 210231Z 16008KT 30/23 A2981 RMK A01 T03030228  RH  064%=      5-min Rain = 0
KMD1 210232Z 16008KT 30/23 A2981 RMK A01 T03030229  RH  065%=      5-min Rain = 0
KMD1 210233Z 17009KT 30/23 A2981 RMK A01 T03020229  RH  065%=      5-min Rain = 0
KMD1 210234Z 16009KT 30/23 A2981 RMK A01 T03010229  RH  065%=      5-min Rain = 0
KMD1 210235Z 16010KT 30/23 A2981 RMK A01 T03010229  RH  065%=      5-min Rain = 0
KMD1 210236Z 17009KT 30/23 A2981 RMK A01 T03010229  RH  066%=      5-min Rain = 0
KMD1 210237Z 16008KT 30/23 A2981 RMK A01 T03010230  RH  066%=      5-min Rain = 0
KMD1 210238Z 16009KT 30/23 A2981 RMK A01 T03010230  RH  066%=      5-min Rain = 0
KMD1 210239Z 17007KT 30/23 A2981 RMK A01 T03000230  RH  066%=      5-min Rain = 0
KMD1 210240Z 17007KT 30/23 A2981 RMK A01 T03000230  RH  066%=      5-min Rain = 0
KMD1 210241Z 17009KT 30/23 A2981 RMK A01 T02990230  RH  067%=      5-min Rain = 0
KMD1 210242Z 17008KT 30/23 A2981 RMK A01 T02980230  RH  067%=      5-min Rain = 0
KMD1 210243Z 17009KT 30/23 A2981 RMK A01 T02980230  RH  067%=      5-min Rain = 0
KMD1 210244Z 17006KT 30/23 A2981 RMK A01 T02980231  RH  067%=      5-min Rain = 0
KMD1 210245Z 16006KT 30/23 A2981 RMK A01 T02970232  RH  068%=      5-min Rain = 0
KMD1 210246Z 16007KT 30/23 A2981 RMK A01 T02950231  RH  069%=      5-min Rain = 0
KMD1 210247Z 16006KT 29/23 A2981 RMK A01 T02940231  RH  069%=      5-min Rain = 0
KMD1 210248Z 17010KT 29/23 A2981 RMK A01 T02930231  RH  069%=      5-min Rain = 0
KMD1 210249Z 16009KT 29/23 A2982 RMK A01 T02940230  RH  068%=      5-min Rain = 0
KMD1 210250Z 16009KT 30/23 A2982 RMK A01 T02950230  RH  068%=      5-min Rain = 0
KMD1 210251Z 17010KT 30/23 A2982 RMK A01 T02960231  RH  068%=      5-min Rain = 0
KMD1 210252Z 17009KT 30/23 A2982 RMK A01 T02960231  RH  068%=      5-min Rain = 0
KMD1 210253Z 17007KT 30/23 A2982 RMK A01 T02960232  RH  069%=      5-min Rain = 0
KMD1 210254Z 17008KT 30/23 A2982 RMK A01 T02950231  RH  069%=      5-min Rain = 0
KMD1 210255Z 16009KT 30/23 A2982 RMK A01 T02950232  RH  069%=      5-min Rain = 0
KMD1 210256Z 16009KT 29/23 A2982 RMK A01 T02940232  RH  069%=      5-min Rain = 0
KMD1 210257Z 16009KT 29/23 A2982 RMK A01 T02930231  RH  069%=      5-min Rain = 0
KMD1 210258Z 17008KT 29/23 A2982 RMK A01 T02940231  RH  069%=      5-min Rain = 0
KMD1 210259Z 17007KT 29/23 A2982 RMK A01 T02940231  RH  069%=      5-min Rain = 0
KMD1 210300Z 16011KT 29/23 A2982 RMK A01 T02940231  RH  069%=      5-min Rain = 0
KMD1 210301Z 17010KT 29/23 A2982 RMK A01 T02940231  RH  069%=      5-min Rain = 0
KMD1 210302Z 17011KT 30/23 A2982 RMK A01 T02950231  RH  069%=      5-min Rain = 0
KMD1 210303Z 16009KT 30/23 A2982 RMK A01 T02950231  RH  069%=      5-min Rain = 0
KMD1 210304Z 16008G13KT 30/23 A2982 RMK A01 T02950231  RH  069%=      5-min Rain = 0
KMD1 210305Z 16009KT 30/23 A2982 RMK A01 T02950232  RH  069%=      5-min Rain = 0
KMD1 210306Z 17009KT 30/23 A2982 RMK A01 T02950232  RH  069%=      5-min Rain = 0
KMD1 210307Z 17008KT 29/23 A2982 RMK A01 T02940232  RH  069%=      5-min Rain = 0
KMD1 210308Z 16009KT 29/23 A2982 RMK A01 T02940232  RH  069%=      5-min Rain = 0
KMD1 210309Z 17010KT 29/23 A2982 RMK A01 T02930232  RH  070%=      5-min Rain = 0
KMD1 210310Z 17010KT 29/23 A2982 RMK A01 T02930231  RH  069%=      5-min Rain = 0
KMD1 210311Z 17008KT 29/23 A2982 RMK A01 T02930231  RH  069%=      5-min Rain = 0
KMD1 210312Z 16011KT 29/23 A2982 RMK A01 T02930232  RH  069%=      5-min Rain = 0
KMD1 210313Z 16010KT 29/23 A2982 RMK A01 T02930231  RH  069%=      5-min Rain = 0
KMD1 210314Z 17010KT 29/23 A2982 RMK A01 T02940232  RH  069%=      5-min Rain = 0
KMD1 210315Z 16009KT 29/23 A2982 RMK A01 T02930231  RH  069%=      5-min Rain = 0
KMD1 210316Z 16009KT 29/23 A2982 RMK A01 T02930232  RH  069%=      5-min Rain = 0
KMD1 210317Z 17011KT 29/23 A2982 RMK A01 T02930232  RH  070%=      5-min Rain = 0
KMD1 210318Z 17010KT 29/23 A2982 RMK A01 T02920231  RH  070%=      5-min Rain = 0
KMD1 210319Z 17011KT 29/23 A2982 RMK A01 T02920231  RH  070%=      5-min Rain = 0
KMD1 210320Z 16011KT 29/23 A2982 RMK A01 T02920231  RH  070%=      5-min Rain = 0
KMD1 210321Z 16009KT 29/23 A2982 RMK A01 T02930231  RH  069%=      5-min Rain = 0
KMD1 210322Z 17010KT 29/23 A2982 RMK A01 T02920231  RH  070%=      5-min Rain = 0
KMD1 210323Z 16009KT 29/23 A2982 RMK A01 T02920231  RH  069%=      5-min Rain = 0
KMD1 210324Z 17009KT 29/23 A2983 RMK A01 T02930231  RH  069%=      5-min Rain = 0
KMD1 210325Z 17010KT 29/23 A2983 RMK A01 T02920232  RH  070%=      5-min Rain = 0
KMD1 210326Z 17011KT 29/23 A2983 RMK A01 T02920231  RH  070%=      5-min Rain = 0
KMD1 210327Z 17010KT 29/23 A2983 RMK A01 T02920230  RH  069%=      5-min Rain = 0
KMD1 210328Z 17008KT 29/23 A2983 RMK A01 T02920231  RH  069%=      5-min Rain = 0
KMD1 210329Z 17009KT 29/23 A2983 RMK A01 T02920232  RH  070%=      5-min Rain = 0
KMD1 210330Z 17007KT 29/23 A2983 RMK A01 T02910232  RH  070%=      5-min Rain = 0
KMD1 210331Z 17007KT 29/23 A2983 RMK A01 T02900232  RH  071%=      5-min Rain = 0
KMD1 210332Z 16009KT 29/23 A2983 RMK A01 T02890232  RH  071%=      5-min Rain = 0
KMD1 210333Z 17012KT 29/23 A2982 RMK A01 T02890230  RH  071%=      5-min Rain = 0
KMD1 210334Z 17009KT 29/23 A2983 RMK A01 T02900230  RH  070%=      5-min Rain = 0
KMD1 210335Z 17009KT 29/23 A2983 RMK A01 T02910231  RH  070%=      5-min Rain = 0
KMD1 210336Z 17008KT 29/23 A2983 RMK A01 T02900231  RH  070%=      5-min Rain = 0
KMD1 210337Z 17009KT 29/23 A2983 RMK A01 T02900231  RH  071%=      5-min Rain = 0
KMD1 210338Z 17010KT 29/23 A2983 RMK A01 T02890231  RH  071%=      5-min Rain = 0
KMD1 210339Z 17010KT 29/23 A2983 RMK A01 T02890231  RH  071%=      5-min Rain = 0
KMD1 210340Z 17012KT 29/23 A2983 RMK A01 T02890231  RH  071%=      5-min Rain = 0
KMD1 210341Z 16010KT 29/23 A2983 RMK A01 T02890230  RH  070%=      5-min Rain = 0
KMD1 210342Z 17007KT 29/23 A2983 RMK A01 T02900231  RH  070%=      5-min Rain = 0
KMD1 210343Z 17009G14KT 29/23 A2983 RMK A01 T02900232  RH  071%=      5-min Rain = 0
KMD1 210344Z 16011KT 29/23 A2983 RMK A01 T02890231  RH  071%=      5-min Rain = 0
KMD1 210345Z 17010KT 29/23 A2983 RMK A01 T02890231  RH  071%=      5-min Rain = 0
KMD1 210346Z 16011KT 29/23 A2983 RMK A01 T02890230  RH  070%=      5-min Rain = 0
KMD1 210347Z 17008KT 29/23 A2983 RMK A01 T02900230  RH  070%=      5-min Rain = 0
KMD1 210348Z 17010KT 29/23 A2983 RMK A01 T02900231  RH  070%=      5-min Rain = 0
KMD1 210349Z 17008G13KT 29/23 A2983 RMK A01 T02900231  RH  071%=      5-min Rain = 0
KMD1 210350Z 17010KT 29/23 A2983 RMK A01 T02890231  RH  071%=      5-min Rain = 0
KMD1 210351Z 16011KT 29/23 A2983 RMK A01 T02880231  RH  071%=      5-min Rain = 0
KMD1 210352Z 17009KT 29/23 A2983 RMK A01 T02890231  RH  071%=      5-min Rain = 0
KMD1 210353Z 17008KT 29/23 A2983 RMK A01 T02880230  RH  071%=      5-min Rain = 0
KMD1 210354Z 17009KT 29/23 A2983 RMK A01 T02880231  RH  071%=      5-min Rain = 0
KMD1 210355Z 16009KT 29/23 A2983 RMK A01 T02880231  RH  071%=      5-min Rain = 0
KMD1 210356Z 17009KT 29/23 A2983 RMK A01 T02880231  RH  071%=      5-min Rain = 0
KMD1 210357Z 17010KT 29/23 A2983 RMK A01 T02870230  RH  071%=      5-min Rain = 0
KMD1 210358Z 17010KT 29/23 A2983 RMK A01 T02870231  RH  072%=      5-min Rain = 0
KMD1 210359Z 17007KT 29/23 A2984 RMK A01 T02870230  RH  071%=      5-min Rain = 0
KMD1 210400Z 17007KT 29/23 A2984 RMK A01 T02870231  RH  072%=      5-min Rain = 0
KMD1 210401Z 17008KT 29/23 A2984 RMK A01 T02870231  RH  072%=      5-min Rain = 0
KMD1 210402Z 17008KT 29/23 A2984 RMK A01 T02870231  RH  072%=      5-min Rain = 0
KMD1 210403Z 17008KT 29/23 A2984 RMK A01 T02860231  RH  072%=      5-min Rain = 0
KMD1 210404Z 17011KT 29/23 A2984 RMK A01 T02860231  RH  072%=      5-min Rain = 0
KMD1 210405Z 17009KT 29/23 A2984 RMK A01 T02870230  RH  071%=      5-min Rain = 0
KMD1 210406Z 17009KT 29/23 A2984 RMK A01 T02870231  RH  071%=      5-min Rain = 0
KMD1 210407Z 15010KT 29/23 A2984 RMK A01 T02870231  RH  072%=      5-min Rain = 0
KMD1 210408Z 16009KT 29/23 A2984 RMK A01 T02860231  RH  072%=      5-min Rain = 0
KMD1 210409Z 16009KT 29/23 A2984 RMK A01 T02860231  RH  072%=      5-min Rain = 0
KMD1 210410Z 17009KT 29/23 A2984 RMK A01 T02860231  RH  072%=      5-min Rain = 0
KMD1 210411Z 16009KT 29/23 A2984 RMK A01 T02860231  RH  072%=      5-min Rain = 0
KMD1 210412Z 17010KT 29/23 A2984 RMK A01 T02860231  RH  072%=      5-min Rain = 0
KMD1 210413Z 16007KT 29/23 A2984 RMK A01 T02860231  RH  072%=      5-min Rain = 0
KMD1 210414Z 17007KT 29/23 A2984 RMK A01 T02860232  RH  073%=      5-min Rain = 0
KMD1 210415Z 18008KT 29/23 A2984 RMK A01 T02850232  RH  073%=      5-min Rain = 0
KMD1 210416Z 18008KT 29/23 A2984 RMK A01 T02850232  RH  073%=      5-min Rain = 0
KMD1 210417Z 18008KT 29/23 A2984 RMK A01 T02850232  RH  073%=      5-min Rain = 0
KMD1 210418Z 17009KT 29/23 A2984 RMK A01 T02850231  RH  073%=      5-min Rain = 0
KMD1 210419Z 17009KT 29/23 A2984 RMK A01 T02850232  RH  073%=      5-min Rain = 0
KMD1 210420Z 16008KT 29/23 A2984 RMK A01 T02850232  RH  073%=      5-min Rain = 0
KMD1 210421Z 17010KT 29/23 A2984 RMK A01 T02850233  RH  073%=      5-min Rain = 0
KMD1 210422Z 17009KT 29/23 A2984 RMK A01 T02850232  RH  073%=      5-min Rain = 0
KMD1 210423Z 16009KT 29/23 A2984 RMK A01 T02850233  RH  073%=      5-min Rain = 0
KMD1 210424Z 17008KT 29/23 A2984 RMK A01 T02850233  RH  073%=      5-min Rain = 0
KMD1 210425Z 18007KT 29/23 A2984 RMK A01 T02850233  RH  073%=      5-min Rain = 0
KMD1 210426Z 17010KT 29/23 A2984 RMK A01 T02850233  RH  074%=      5-min Rain = 0
KMD1 210427Z 17009KT 29/23 A2984 RMK A01 T02850233  RH  074%=      5-min Rain = 0
KMD1 210428Z 18006KT 29/23 A2984 RMK A01 T02850233  RH  074%=      5-min Rain = 0
KMD1 210429Z 17006KT 28/23 A2984 RMK A01 T02840233  RH  074%=      5-min Rain = 0
KMD1 210430Z 17007KT 28/23 A2984 RMK A01 T02840234  RH  074%=      5-min Rain = 0
KMD1 210431Z 18009KT 28/23 A2984 RMK A01 T02830234  RH  074%=      5-min Rain = 0
KMD1 210432Z 16011KT 28/23 A2984 RMK A01 T02830233  RH  074%=      5-min Rain = 0
KMD1 210433Z 18010KT 28/23 A2984 RMK A01 T02840233  RH  074%=      5-min Rain = 0
KMD1 210434Z 17008KT 28/23 A2984 RMK A01 T02840234  RH  074%=      5-min Rain = 0
KMD1 210435Z 17012KT 28/23 A2984 RMK A01 T02840234  RH  074%=      5-min Rain = 0
KMD1 210436Z 16010KT 28/23 A2984 RMK A01 T02840234  RH  074%=      5-min Rain = 0
KMD1 210437Z 16011KT 28/23 A2984 RMK A01 T02840234  RH  074%=      5-min Rain = 0
KMD1 210438Z 16010KT 29/23 A2984 RMK A01 T02850234  RH  074%=      5-min Rain = 0
KMD1 210439Z 17008KT 28/23 A2984 RMK A01 T02840234  RH  074%=      5-min Rain = 0
KMD1 210440Z 17009KT 28/23 A2984 RMK A01 T02840234  RH  074%=      5-min Rain = 0
KMD1 210441Z 17007KT 28/23 A2984 RMK A01 T02840234  RH  074%=      5-min Rain = 0
KMD1 210442Z 17007KT 28/24 A2984 RMK A01 T02840235  RH  075%=      5-min Rain = 0
KMD1 210443Z 16009KT 28/24 A2984 RMK A01 T02840235  RH  075%=      5-min Rain = 0
KMD1 210444Z 17009G14KT 28/24 A2984 RMK A01 T02830235  RH  075%=      5-min Rain = 0
KMD1 210445Z 17006KT 28/23 A2984 RMK A01 T02830234  RH  075%=      5-min Rain = 0
KMD1 210446Z 17008KT 28/24 A2984 RMK A01 T02830235  RH  075%=      5-min Rain = 0
KMD1 210447Z 17008KT 28/24 A2984 RMK A01 T02830235  RH  075%=      5-min Rain = 0
KMD1 210448Z 17010KT 28/23 A2984 RMK A01 T02820234  RH  075%=      5-min Rain = 0
KMD1 210449Z 17009KT 28/23 A2984 RMK A01 T02820234  RH  075%=      5-min Rain = 0
KMD1 210450Z 18007KT 28/24 A2984 RMK A01 T02820235  RH  075%=      5-min Rain = 0
KMD1 210451Z 17008KT 28/24 A2984 RMK A01 T02820235  RH  076%=      5-min Rain = 0
KMD1 210452Z 17009KT 28/24 A2984 RMK A01 T02810235  RH  076%=      5-min Rain = 0
KMD1 210453Z 16008KT 28/24 A2984 RMK A01 T02810235  RH  076%=      5-min Rain = 0
KMD1 210454Z 17007KT 28/24 A2984 RMK A01 T02810235  RH  076%=      5-min Rain = 0
KMD1 210455Z 17011KT 28/24 A2984 RMK A01 T02810235  RH  076%=      5-min Rain = 0
KMD1 210456Z 17008KT 28/24 A2984 RMK A01 T02810235  RH  076%=      5-min Rain = 0
KMD1 210457Z 17010KT 28/24 A2984 RMK A01 T02810235  RH  076%=      5-min Rain = 0
KMD1 210458Z 18010G17KT 28/24 A2984 RMK A01 T02810235  RH  076%=      5-min Rain = 0
KMD1 210459Z 17010KT 28/24 A2984 RMK A01 T02810235  RH  076%=      5-min Rain = 0

Page generated in 0.1198 seconds.